AFR29A SOCA-LFPG
Flight info
| Callsign | AFR29A |
|---|---|
| Flight time | N/A |
| Altitude | 33000 |
| Route | 08N050W 09N048W/M084F330 23N040W/M084F350 33N030W 40N020W/M084F370 DCT ARMED/N0488F380 DCT PETEK DCT LOTEE DCT GATMO DCT NTS/N0498F300 UN741 KEPER |
| Aircraft | B77W/H-SDE1E2E3FGHIJ2J3J4J5M1RWXY/LB1D1 |
Departure
| Time | 2026-05-03 21:25 |
|---|---|
| Airport | Cayenne – Félix Eboué Airport (SOCA) |
Arrival
| Time | N/A |
|---|---|
| Airport | Charles de Gaulle International Airport (LFPG) |
| Time | Latitude | Longitude | Altitude | Speed | Heading |
|---|---|---|---|---|---|
| 2026-05-03 20:56 | 4.82143 | -52.36362 | 33 ft | 0 kts | 334° |
| 2026-05-03 21:15 | 4.82131 | -52.36356 | 32 ft | 4 kts | 340° |
| 2026-05-03 21:15 | 4.82105 | -52.36350 | 32 ft | 4 kts | 1° |
| 2026-05-03 21:15 | 4.82079 | -52.36356 | 31 ft | 4 kts | 30° |
| 2026-05-03 21:15 | 4.82059 | -52.36372 | 31 ft | 4 kts | 53° |
| 2026-05-03 21:16 | 4.82045 | -52.36395 | 31 ft | 4 kts | 65° |
| 2026-05-03 21:16 | 4.82036 | -52.36414 | 30 ft | 0 kts | 64° |
| 2026-05-03 21:19 | 4.82037 | -52.36413 | 30 ft | 1 kts | 64° |
| 2026-05-03 21:19 | 4.82045 | -52.36395 | 31 ft | 5 kts | 64° |
| 2026-05-03 21:20 | 4.82064 | -52.36356 | 31 ft | 8 kts | 64° |
| 2026-05-03 21:20 | 4.82088 | -52.36299 | 33 ft | 9 kts | 81° |
| 2026-05-03 21:20 | 4.82049 | -52.36250 | 33 ft | 11 kts | 150° |
| 2026-05-03 21:20 | 4.81973 | -52.36229 | 33 ft | 12 kts | 193° |
| 2026-05-03 21:21 | 4.81920 | -52.36293 | 33 ft | 14 kts | 246° |
| 2026-05-03 21:21 | 4.81863 | -52.36419 | 33 ft | 27 kts | 245° |
| 2026-05-03 21:21 | 4.81763 | -52.36635 | 33 ft | 41 kts | 245° |
| 2026-05-03 21:21 | 4.81628 | -52.36932 | 33 ft | 49 kts | 245° |
| 2026-05-03 21:22 | 4.81514 | -52.37178 | 32 ft | 27 kts | 245° |
| 2026-05-03 21:22 | 4.81455 | -52.37307 | 32 ft | 15 kts | 246° |
| 2026-05-03 21:22 | 4.81448 | -52.37384 | 32 ft | 6 kts | 276° |
| 2026-05-03 21:22 | 4.81431 | -52.37408 | 32 ft | 4 kts | 194° |
| 2026-05-03 21:23 | 4.81414 | -52.37383 | 32 ft | 3 kts | 78° |
| 2026-05-03 21:23 | 4.81432 | -52.37353 | 32 ft | 5 kts | 62° |
| 2026-05-03 21:23 | 4.81440 | -52.37336 | 32 ft | 0 kts | 64° |
| 2026-05-03 21:24 | 4.81458 | -52.37298 | 32 ft | 27 kts | 65° |
| 2026-05-03 21:24 | 4.81645 | -52.36892 | 33 ft | 100 kts | 65° |
| 2026-05-03 21:24 | 4.82021 | -52.36074 | 34 ft | 160 kts | 65° |
| 2026-05-03 21:25 | 4.82549 | -52.34944 | 253 ft | 184 kts | 66° |
| 2026-05-03 21:25 | 4.82974 | -52.33781 | 955 ft | 178 kts | 73° |
| 2026-05-03 21:25 | 4.83285 | -52.32564 | 1542 ft | 179 kts | 73° |
| 2026-05-03 21:25 | 4.83592 | -52.31347 | 1909 ft | 187 kts | 73° |
| 2026-05-03 21:26 | 4.83949 | -52.30030 | 2120 ft | 203 kts | 74° |
| 2026-05-03 21:26 | 4.84321 | -52.28578 | 2346 ft | 222 kts | 76° |
| 2026-05-03 21:26 | 4.84692 | -52.27036 | 2788 ft | 234 kts | 74° |
| 2026-05-03 21:26 | 4.85103 | -52.25460 | 3326 ft | 242 kts | 75° |
| 2026-05-03 21:27 | 4.85534 | -52.23809 | 3908 ft | 248 kts | 75° |
| 2026-05-03 21:27 | 4.85975 | -52.22120 | 4540 ft | 252 kts | 75° |
| 2026-05-03 21:27 | 4.86595 | -52.20471 | 5063 ft | 257 kts | 55° |
| 2026-05-03 21:27 | 4.87956 | -52.19288 | 5653 ft | 265 kts | 28° |
| 2026-05-03 21:28 | 4.89737 | -52.18762 | 6291 ft | 270 kts | 10° |
| 2026-05-03 21:28 | 4.91647 | -52.18782 | 6788 ft | 279 kts | 356° |
| 2026-05-03 21:28 | 4.93598 | -52.18969 | 7307 ft | 283 kts | 359° |
| 2026-05-03 21:28 | 4.95535 | -52.19131 | 7971 ft | 283 kts | 358° |
| 2026-05-03 21:29 | 4.97506 | -52.19298 | 8628 ft | 285 kts | 359° |
| 2026-05-03 21:29 | 4.99494 | -52.19458 | 9234 ft | 288 kts | 359° |
| 2026-05-03 21:29 | 5.01502 | -52.19614 | 9848 ft | 291 kts | 359° |
| 2026-05-03 21:29 | 5.03540 | -52.19767 | 10323 ft | 299 kts | 359° |
| 2026-05-03 21:30 | 5.05694 | -52.19923 | 10469 ft | 321 kts | 359° |
| 2026-05-03 21:30 | 5.07993 | -52.20087 | 10624 ft | 341 kts | 359° |
| 2026-05-03 21:30 | 5.10435 | -52.20262 | 10772 ft | 362 kts | 359° |
| 2026-05-03 21:30 | 5.13004 | -52.20446 | 11124 ft | 375 kts | 359° |
| 2026-05-03 21:31 | 5.15636 | -52.20637 | 11669 ft | 383 kts | 359° |
| 2026-05-03 21:31 | 5.17403 | -52.20766 | 12117 ft | 386 kts | 359° |
| 2026-05-03 21:31 | 5.20093 | -52.20962 | 12901 ft | 388 kts | 359° |
| 2026-05-03 21:31 | 5.22791 | -52.21157 | 13667 ft | 391 kts | 359° |
| 2026-05-03 21:32 | 5.26415 | -52.21418 | 14478 ft | 397 kts | 359° |
| 2026-05-03 21:32 | 5.28287 | -52.21552 | 14874 ft | 400 kts | 359° |
| 2026-05-03 21:32 | 5.31075 | -52.21752 | 15484 ft | 404 kts | 359° |
| 2026-05-03 21:32 | 5.33860 | -52.21952 | 16070 ft | 408 kts | 359° |
| 2026-05-03 21:33 | 5.36713 | -52.22157 | 16665 ft | 412 kts | 359° |
| 2026-05-03 21:33 | 5.39593 | -52.22364 | 17244 ft | 417 kts | 359° |
| 2026-05-03 21:33 | 5.42504 | -52.22573 | 17812 ft | 421 kts | 359° |
| 2026-05-03 21:33 | 5.45404 | -52.22553 | 18211 ft | 417 kts | 13° |
| 2026-05-03 21:34 | 5.48145 | -52.21596 | 18557 ft | 418 kts | 31° |
| 2026-05-03 21:34 | 5.50499 | -52.19905 | 19049 ft | 415 kts | 42° |
| 2026-05-03 21:34 | 5.52653 | -52.18010 | 19488 ft | 419 kts | 43° |
| 2026-05-03 21:34 | 5.54845 | -52.16058 | 19950 ft | 424 kts | 43° |
| 2026-05-03 21:35 | 5.57057 | -52.14083 | 20456 ft | 427 kts | 43° |
| 2026-05-03 21:35 | 5.59291 | -52.12094 | 20870 ft | 432 kts | 43° |
| 2026-05-03 21:35 | 5.61547 | -52.10096 | 21392 ft | 434 kts | 43° |
| 2026-05-03 21:35 | 5.63785 | -52.08047 | 21712 ft | 438 kts | 44° |
| 2026-05-03 21:36 | 5.66031 | -52.05966 | 22026 ft | 438 kts | 44° |
| 2026-05-03 21:36 | 5.68320 | -52.03923 | 22312 ft | 444 kts | 41° |
| 2026-05-03 21:36 | 5.70698 | -52.01938 | 22787 ft | 445 kts | 41° |
| 2026-05-03 21:36 | 5.73110 | -51.99937 | 23129 ft | 450 kts | 41° |
| 2026-05-03 21:37 | 5.75470 | -51.97888 | 23468 ft | 448 kts | 43° |
| 2026-05-03 21:37 | 5.77753 | -51.95827 | 23709 ft | 446 kts | 43° |
| 2026-05-03 21:37 | 5.80173 | -51.93818 | 23925 ft | 454 kts | 40° |
| 2026-05-03 21:37 | 5.82611 | -51.91808 | 24233 ft | 456 kts | 41° |
| 2026-05-03 21:38 | 5.85044 | -51.89743 | 24426 ft | 460 kts | 41° |
| 2026-05-03 21:38 | 5.87440 | -51.87602 | 24607 ft | 464 kts | 43° |
| 2026-05-03 21:38 | 5.89824 | -51.85404 | 24801 ft | 465 kts | 44° |
| 2026-05-03 21:38 | 5.92191 | -51.83176 | 24926 ft | 470 kts | 42° |
| 2026-05-03 21:39 | 5.94709 | -51.81048 | 25126 ft | 475 kts | 41° |
| 2026-05-03 21:39 | 5.97231 | -51.78887 | 25419 ft | 478 kts | 41° |
| 2026-05-03 21:39 | 5.99773 | -51.76717 | 25648 ft | 482 kts | 40° |
| 2026-05-03 21:39 | 6.02341 | -51.74533 | 25917 ft | 486 kts | 41° |
| 2026-05-03 21:40 | 6.04892 | -51.72274 | 26215 ft | 489 kts | 42° |
| 2026-05-03 21:40 | 6.07395 | -51.70005 | 26479 ft | 491 kts | 43° |
| 2026-05-03 21:40 | 6.09891 | -51.67651 | 26596 ft | 495 kts | 42° |
| 2026-05-03 21:40 | 6.12449 | -51.65323 | 26799 ft | 498 kts | 41° |
| 2026-05-03 21:41 | 6.15060 | -51.63029 | 27117 ft | 498 kts | 41° |
| 2026-05-03 21:41 | 6.17695 | -51.60757 | 27442 ft | 499 kts | 40° |
| 2026-05-03 21:41 | 6.20308 | -51.58495 | 27851 ft | 494 kts | 40° |
| 2026-05-03 21:41 | 6.22869 | -51.56197 | 28088 ft | 491 kts | 42° |
| 2026-05-03 21:42 | 6.25418 | -51.53902 | 28249 ft | 494 kts | 39° |
| 2026-05-03 21:42 | 6.28123 | -51.51740 | 28525 ft | 497 kts | 37° |
| 2026-05-03 21:42 | 6.30826 | -51.49541 | 28732 ft | 503 kts | 40° |
| 2026-05-03 21:42 | 6.33456 | -51.47205 | 28955 ft | 505 kts | 41° |
| 2026-05-03 21:43 | 6.36043 | -51.44872 | 29217 ft | 508 kts | 41° |
| 2026-05-03 21:43 | 6.38679 | -51.42476 | 29395 ft | 513 kts | 43° |
| 2026-05-03 21:43 | 6.41242 | -51.40000 | 29519 ft | 509 kts | 43° |
| 2026-05-03 21:43 | 6.43912 | -51.37641 | 29637 ft | 513 kts | 38° |
| 2026-05-03 21:44 | 6.46729 | -51.35405 | 29786 ft | 519 kts | 37° |
| 2026-05-03 21:44 | 6.49535 | -51.33096 | 29917 ft | 524 kts | 39° |
| 2026-05-03 21:44 | 6.52298 | -51.30684 | 30026 ft | 528 kts | 40° |
| 2026-05-03 21:44 | 6.55048 | -51.28213 | 30164 ft | 532 kts | 41° |
| 2026-05-03 21:45 | 6.57802 | -51.25721 | 30332 ft | 533 kts | 41° |
| 2026-05-03 21:45 | 6.60565 | -51.23232 | 30618 ft | 532 kts | 41° |
| 2026-05-03 21:45 | 6.63330 | -51.20762 | 30945 ft | 530 kts | 40° |
| 2026-05-03 21:45 | 6.66090 | -51.18315 | 31272 ft | 528 kts | 40° |
| 2026-05-03 21:46 | 6.68851 | -51.15880 | 31570 ft | 527 kts | 40° |
| 2026-05-03 21:46 | 6.71612 | -51.13452 | 31863 ft | 526 kts | 40° |
| 2026-05-03 21:46 | 6.74366 | -51.11033 | 32154 ft | 526 kts | 40° |
| 2026-05-03 21:46 | 6.77120 | -51.08612 | 32459 ft | 525 kts | 40° |
| 2026-05-03 21:47 | 6.79867 | -51.06196 | 32772 ft | 523 kts | 39° |
| 2026-05-03 21:47 | 6.82615 | -51.03777 | 32900 ft | 527 kts | 39° |
| 2026-05-03 21:47 | 6.88143 | -50.98909 | 32969 ft | 526 kts | 39° |
| 2026-05-03 21:48 | 6.93606 | -50.94093 | 32966 ft | 523 kts | 39° |
| 2026-05-03 21:48 | 6.99072 | -50.89274 | 32970 ft | 521 kts | 39° |
| 2026-05-03 21:49 | 7.04527 | -50.84463 | 32974 ft | 522 kts | 39° |
| 2026-05-03 21:49 | 7.09992 | -50.79644 | 32969 ft | 523 kts | 39° |
| 2026-05-03 21:50 | 7.15478 | -50.74803 | 32976 ft | 525 kts | 39° |
| 2026-05-03 21:50 | 7.20981 | -50.69946 | 32977 ft | 527 kts | 39° |
| 2026-05-03 21:51 | 7.26504 | -50.65069 | 32973 ft | 528 kts | 39° |
| 2026-05-03 21:51 | 7.32002 | -50.60212 | 32972 ft | 529 kts | 39° |
| 2026-05-03 21:52 | 7.37535 | -50.55323 | 32976 ft | 529 kts | 39° |
| 2026-05-03 21:52 | 7.43079 | -50.50422 | 32977 ft | 529 kts | 39° |
| 2026-05-03 21:53 | 7.48616 | -50.45526 | 32971 ft | 529 kts | 39° |
| 2026-05-03 21:53 | 7.54140 | -50.40640 | 32978 ft | 528 kts | 39° |
| 2026-05-03 21:54 | 7.59662 | -50.35753 | 32973 ft | 528 kts | 39° |
| 2026-05-03 21:54 | 7.65146 | -50.30898 | 32982 ft | 528 kts | 40° |
| 2026-05-03 21:55 | 7.70676 | -50.26001 | 32981 ft | 528 kts | 40° |
| 2026-05-03 21:55 | 7.76198 | -50.21109 | 32981 ft | 528 kts | 40° |
| 2026-05-03 21:56 | 7.81717 | -50.16218 | 32978 ft | 528 kts | 40° |
| 2026-05-03 21:56 | 7.87241 | -50.11321 | 32982 ft | 528 kts | 40° |
| 2026-05-03 21:57 | 7.92727 | -50.06454 | 32981 ft | 528 kts | 40° |
| 2026-05-03 21:57 | 7.98076 | -50.01357 | 32969 ft | 529 kts | 48° |
| 2026-05-03 21:58 | 8.02412 | -49.95359 | 32988 ft | 530 kts | 59° |
| 2026-05-03 21:58 | 8.05793 | -49.88741 | 32987 ft | 530 kts | 64° |
| 2026-05-03 21:59 | 8.09067 | -49.82068 | 32979 ft | 530 kts | 63° |
| 2026-05-03 21:59 | 8.12351 | -49.75458 | 32990 ft | 530 kts | 63° |
| 2026-05-03 22:00 | 8.15687 | -49.68815 | 32984 ft | 530 kts | 63° |
| 2026-05-03 22:00 | 8.19029 | -49.62176 | 32986 ft | 530 kts | 63° |
| 2026-05-03 22:01 | 8.22366 | -49.55539 | 32986 ft | 530 kts | 63° |
| 2026-05-03 22:01 | 8.25704 | -49.48891 | 32988 ft | 529 kts | 63° |
| 2026-05-03 22:02 | 8.29036 | -49.42250 | 32985 ft | 529 kts | 63° |
| 2026-05-03 22:02 | 8.32361 | -49.35618 | 32986 ft | 529 kts | 63° |
| 2026-05-03 22:03 | 8.35682 | -49.28994 | 32987 ft | 529 kts | 63° |
| 2026-05-03 22:03 | 8.38986 | -49.22400 | 32989 ft | 528 kts | 63° |
| 2026-05-03 22:04 | 8.42305 | -49.15772 | 32990 ft | 529 kts | 63° |
| 2026-05-03 22:04 | 8.43966 | -49.12452 | 33104 ft | 531 kts | 63° |
| 2026-05-03 22:04 | 8.45637 | -49.09115 | 33388 ft | 530 kts | 63° |
| 2026-05-03 22:05 | 8.47298 | -49.05794 | 33734 ft | 528 kts | 63° |
| 2026-05-03 22:05 | 8.48954 | -49.02485 | 34075 ft | 526 kts | 63° |
| 2026-05-03 22:05 | 8.50602 | -48.99188 | 34358 ft | 525 kts | 63° |
| 2026-05-03 22:05 | 8.52249 | -48.95894 | 34600 ft | 525 kts | 63° |
| 2026-05-03 22:06 | 8.53894 | -48.92603 | 34811 ft | 525 kts | 63° |
| 2026-05-03 22:06 | 8.55545 | -48.89299 | 34909 ft | 526 kts | 63° |
| 2026-05-03 22:06 | 8.58824 | -48.82735 | 34987 ft | 526 kts | 63° |
| 2026-05-03 22:07 | 8.62116 | -48.76141 | 34986 ft | 524 kts | 63° |
| 2026-05-03 22:07 | 8.65394 | -48.69571 | 34992 ft | 523 kts | 63° |
| 2026-05-03 22:08 | 8.68668 | -48.63006 | 34993 ft | 522 kts | 63° |
| 2026-05-03 22:08 | 8.71937 | -48.56448 | 34993 ft | 523 kts | 63° |
| 2026-05-03 22:09 | 8.75207 | -48.49884 | 34993 ft | 523 kts | 63° |
| 2026-05-03 22:10 | 8.80127 | -48.40003 | 34997 ft | 524 kts | 63° |
| 2026-05-03 22:10 | 8.83388 | -48.33449 | 34995 ft | 525 kts | 63° |
| 2026-05-03 22:11 | 8.86675 | -48.26838 | 34995 ft | 526 kts | 63° |
| 2026-05-03 22:11 | 8.89961 | -48.20226 | 34992 ft | 526 kts | 63° |
| 2026-05-03 22:12 | 8.93248 | -48.13608 | 34995 ft | 526 kts | 63° |
| 2026-05-03 22:12 | 8.96532 | -48.06993 | 34992 ft | 526 kts | 63° |
| 2026-05-03 22:13 | 9.00506 | -48.00917 | 34995 ft | 521 kts | 44° |
| 2026-05-03 22:13 | 9.06190 | -47.96477 | 34984 ft | 513 kts | 25° |
| 2026-05-03 22:14 | 9.12552 | -47.93182 | 35001 ft | 514 kts | 24° |
| 2026-05-03 22:14 | 9.18950 | -47.89871 | 35001 ft | 517 kts | 25° |
| 2026-05-03 22:15 | 9.25338 | -47.86497 | 35001 ft | 518 kts | 25° |
| 2026-05-03 22:15 | 9.31691 | -47.83104 | 35000 ft | 519 kts | 25° |
| 2026-05-03 22:16 | 9.38083 | -47.79681 | 35001 ft | 520 kts | 25° |
| 2026-05-03 22:16 | 9.44476 | -47.76260 | 34999 ft | 519 kts | 25° |
| 2026-05-03 22:17 | 9.50862 | -47.72845 | 34998 ft | 518 kts | 25° |
| 2026-05-03 22:17 | 9.57189 | -47.69431 | 35003 ft | 516 kts | 25° |
| 2026-05-03 22:18 | 9.63518 | -47.66052 | 35003 ft | 513 kts | 24° |
| 2026-05-03 22:18 | 9.69824 | -47.62694 | 35001 ft | 510 kts | 24° |
| 2026-05-03 22:19 | 9.76090 | -47.59344 | 35005 ft | 508 kts | 24° |
| 2026-05-03 22:19 | 9.82348 | -47.55991 | 35009 ft | 509 kts | 24° |
| 2026-05-03 22:20 | 9.87553 | -47.53201 | 35014 ft | 510 kts | 24° |
| 2026-05-03 22:20 | 9.93839 | -47.49829 | 35015 ft | 511 kts | 24° |
| 2026-05-03 22:21 | 10.00141 | -47.46449 | 35013 ft | 513 kts | 24° |
| 2026-05-03 22:21 | 10.06466 | -47.43053 | 35016 ft | 515 kts | 24° |
| 2026-05-03 22:22 | 10.12806 | -47.39649 | 35017 ft | 516 kts | 24° |
| 2026-05-03 22:22 | 10.19157 | -47.36237 | 35016 ft | 516 kts | 24° |
| 2026-05-03 22:23 | 10.25500 | -47.32827 | 35016 ft | 516 kts | 24° |
| 2026-05-03 22:23 | 10.31808 | -47.29435 | 35020 ft | 516 kts | 24° |
| 2026-05-03 22:24 | 10.38143 | -47.26026 | 35016 ft | 515 kts | 24° |
| 2026-05-03 22:24 | 10.44476 | -47.22618 | 35018 ft | 514 kts | 24° |
| 2026-05-03 22:25 | 10.50811 | -47.19207 | 35021 ft | 514 kts | 24° |
| 2026-05-03 22:25 | 10.57128 | -47.15805 | 35031 ft | 514 kts | 24° |
| 2026-05-03 22:26 | 10.63405 | -47.12422 | 35019 ft | 514 kts | 24° |
| 2026-05-03 22:26 | 10.69730 | -47.09011 | 35018 ft | 513 kts | 24° |
| 2026-05-03 22:27 | 10.76041 | -47.05606 | 35023 ft | 513 kts | 24° |
| 2026-05-03 22:27 | 10.82352 | -47.02200 | 35023 ft | 513 kts | 24° |
| 2026-05-03 22:28 | 10.88666 | -46.98791 | 35022 ft | 514 kts | 24° |
| 2026-05-03 22:28 | 10.94983 | -46.95378 | 35029 ft | 514 kts | 24° |
| 2026-05-03 22:29 | 11.01305 | -46.91962 | 35026 ft | 514 kts | 24° |
| 2026-05-03 22:29 | 11.07585 | -46.88565 | 35021 ft | 515 kts | 24° |
| 2026-05-03 22:30 | 11.13912 | -46.85142 | 35030 ft | 515 kts | 24° |
| 2026-05-03 22:30 | 11.20246 | -46.81713 | 35031 ft | 515 kts | 24° |
| 2026-05-03 22:31 | 11.26587 | -46.78279 | 35044 ft | 516 kts | 24° |
| 2026-05-03 22:31 | 11.32923 | -46.74845 | 35037 ft | 515 kts | 24° |
| 2026-05-03 22:32 | 11.39220 | -46.71431 | 35037 ft | 514 kts | 24° |
| 2026-05-03 22:32 | 11.45532 | -46.68007 | 35024 ft | 513 kts | 24° |
| 2026-05-03 22:33 | 11.51837 | -46.64586 | 35031 ft | 513 kts | 24° |
| 2026-05-03 22:33 | 11.58131 | -46.61169 | 35029 ft | 512 kts | 24° |
| 2026-05-03 22:34 | 11.64417 | -46.57753 | 35045 ft | 512 kts | 24° |
| 2026-05-03 22:34 | 11.70699 | -46.54338 | 35026 ft | 511 kts | 24° |
| 2026-05-03 22:35 | 11.76976 | -46.50924 | 35041 ft | 511 kts | 24° |
| 2026-05-03 22:35 | 11.83264 | -46.47503 | 35035 ft | 512 kts | 24° |
| 2026-05-03 22:36 | 11.89550 | -46.44082 | 35038 ft | 512 kts | 24° |
| 2026-05-03 22:36 | 11.95836 | -46.40658 | 35040 ft | 512 kts | 24° |
| 2026-05-03 22:37 | 12.02120 | -46.37234 | 35051 ft | 512 kts | 24° |
| 2026-05-03 22:37 | 12.08364 | -46.33829 | 35038 ft | 511 kts | 24° |
| 2026-05-03 22:38 | 12.14635 | -46.30408 | 35040 ft | 510 kts | 24° |
| 2026-05-03 22:38 | 12.20903 | -46.26986 | 35044 ft | 510 kts | 24° |
| 2026-05-03 22:39 | 12.27159 | -46.23570 | 35046 ft | 509 kts | 25° |
| 2026-05-03 22:39 | 12.33417 | -46.20151 | 35043 ft | 509 kts | 25° |
| 2026-05-03 22:40 | 12.39636 | -46.16751 | 35045 ft | 509 kts | 25° |
| 2026-05-03 22:40 | 12.45898 | -46.13326 | 35043 ft | 510 kts | 25° |
| 2026-05-03 22:41 | 12.52158 | -46.09900 | 35046 ft | 510 kts | 25° |
| 2026-05-03 22:41 | 12.58428 | -46.06467 | 35047 ft | 511 kts | 25° |
| 2026-05-03 22:42 | 12.64706 | -46.03027 | 35047 ft | 512 kts | 25° |
| 2026-05-03 22:42 | 12.70993 | -45.99576 | 35059 ft | 512 kts | 26° |
| 2026-05-03 22:43 | 12.77117 | -45.96013 | 35053 ft | 507 kts | 25° |
| 2026-05-03 22:43 | 12.83373 | -45.92656 | 35049 ft | 507 kts | 24° |
| 2026-05-03 22:44 | 12.89657 | -45.89315 | 35051 ft | 509 kts | 24° |
| 2026-05-03 22:44 | 12.95895 | -45.85881 | 35061 ft | 508 kts | 27° |
| 2026-05-03 22:45 | 13.01979 | -45.82398 | 35021 ft | 503 kts | 24° |
| 2026-05-03 22:45 | 13.08190 | -45.79111 | 35046 ft | 503 kts | 23° |
| 2026-05-03 22:46 | 13.14403 | -45.75763 | 35061 ft | 506 kts | 24° |
| 2026-05-03 22:46 | 13.20622 | -45.72333 | 35062 ft | 508 kts | 24° |
| 2026-05-03 22:47 | 13.26857 | -45.68877 | 35059 ft | 510 kts | 24° |
| 2026-05-03 22:47 | 13.33071 | -45.65440 | 35050 ft | 509 kts | 24° |
| 2026-05-03 22:48 | 13.39325 | -45.61988 | 35067 ft | 508 kts | 24° |
| 2026-05-03 22:48 | 13.45546 | -45.58554 | 35061 ft | 507 kts | 24° |
| 2026-05-03 22:49 | 13.51766 | -45.55118 | 35058 ft | 506 kts | 24° |
| 2026-05-03 22:49 | 13.57922 | -45.51716 | 35063 ft | 504 kts | 24° |
| 2026-05-03 22:50 | 13.64100 | -45.48300 | 35062 ft | 504 kts | 24° |
| 2026-05-03 22:50 | 13.70272 | -45.44885 | 35064 ft | 504 kts | 24° |
| 2026-05-03 22:51 | 13.76452 | -45.41464 | 35065 ft | 504 kts | 24° |
| 2026-05-03 22:51 | 13.82638 | -45.38038 | 35064 ft | 505 kts | 24° |
| 2026-05-03 22:52 | 13.88824 | -45.34608 | 35074 ft | 506 kts | 24° |
| 2026-05-03 22:52 | 13.94992 | -45.31187 | 35069 ft | 506 kts | 24° |
| 2026-05-03 22:53 | 14.01200 | -45.27742 | 35070 ft | 507 kts | 24° |
| 2026-05-03 22:53 | 14.07407 | -45.24294 | 35064 ft | 507 kts | 24° |
| 2026-05-03 22:54 | 14.13623 | -45.20839 | 35072 ft | 507 kts | 25° |
| 2026-05-03 22:54 | 14.19826 | -45.17390 | 35060 ft | 507 kts | 24° |
| 2026-05-03 22:55 | 14.26037 | -45.13934 | 35075 ft | 506 kts | 24° |
| 2026-05-03 22:55 | 14.32229 | -45.10487 | 35083 ft | 506 kts | 25° |
| 2026-05-03 22:56 | 14.38414 | -45.07040 | 35072 ft | 505 kts | 25° |
| 2026-05-03 22:56 | 14.44584 | -45.03601 | 35071 ft | 503 kts | 25° |
| 2026-05-03 22:57 | 14.50703 | -45.00188 | 35075 ft | 502 kts | 25° |
| 2026-05-03 22:57 | 14.56821 | -44.96726 | 35081 ft | 500 kts | 26° |
| 2026-05-03 22:58 | 14.62809 | -44.93187 | 35082 ft | 495 kts | 25° |
| 2026-05-03 22:58 | 14.68930 | -44.89902 | 35078 ft | 496 kts | 24° |
| 2026-05-03 22:59 | 14.75068 | -44.86571 | 35087 ft | 499 kts | 25° |
| 2026-05-03 22:59 | 14.81185 | -44.83171 | 35085 ft | 500 kts | 25° |
| 2026-05-03 23:00 | 14.87314 | -44.79731 | 35087 ft | 501 kts | 26° |
| 2026-05-03 23:00 | 14.93436 | -44.76293 | 35083 ft | 500 kts | 25° |
| 2026-05-03 23:01 | 14.99506 | -44.72886 | 35074 ft | 499 kts | 25° |
| 2026-05-03 23:01 | 15.05615 | -44.69458 | 35087 ft | 498 kts | 25° |
| 2026-05-03 23:02 | 15.11709 | -44.66037 | 35092 ft | 497 kts | 25° |
| 2026-05-03 23:02 | 15.17797 | -44.62617 | 35084 ft | 497 kts | 26° |
| 2026-05-03 23:03 | 15.23846 | -44.59217 | 35088 ft | 497 kts | 26° |
| 2026-05-03 23:03 | 15.29927 | -44.55797 | 35089 ft | 497 kts | 26° |
| 2026-05-03 23:04 | 15.36007 | -44.52374 | 35090 ft | 497 kts | 26° |
| 2026-05-03 23:04 | 15.42090 | -44.48947 | 35093 ft | 497 kts | 26° |
| 2026-05-03 23:05 | 15.48133 | -44.45542 | 35089 ft | 498 kts | 25° |
| 2026-05-03 23:05 | 15.54216 | -44.42110 | 35090 ft | 498 kts | 25° |
| 2026-05-03 23:06 | 15.60301 | -44.38675 | 35089 ft | 498 kts | 25° |
| 2026-05-03 23:06 | 15.66383 | -44.35240 | 35093 ft | 498 kts | 25° |
| 2026-05-03 23:07 | 15.72462 | -44.31804 | 35089 ft | 497 kts | 26° |
| 2026-05-03 23:07 | 15.78540 | -44.28367 | 35090 ft | 497 kts | 26° |
| 2026-05-03 23:08 | 15.83595 | -44.25506 | 35090 ft | 497 kts | 26° |
| 2026-05-03 23:08 | 15.89667 | -44.22067 | 35092 ft | 497 kts | 26° |
| 2026-05-03 23:09 | 15.95746 | -44.18622 | 35092 ft | 497 kts | 26° |
| 2026-05-03 23:09 | 16.01820 | -44.15178 | 35103 ft | 497 kts | 26° |
| 2026-05-03 23:10 | 16.07895 | -44.11730 | 35090 ft | 497 kts | 26° |
| 2026-05-03 23:10 | 16.13961 | -44.08285 | 35093 ft | 497 kts | 26° |
| 2026-05-03 23:11 | 16.20021 | -44.04841 | 35093 ft | 496 kts | 26° |
| 2026-05-03 23:11 | 16.26035 | -44.01421 | 35098 ft | 496 kts | 26° |
| 2026-05-03 23:12 | 16.32093 | -43.97973 | 35102 ft | 496 kts | 26° |
| 2026-05-03 23:12 | 16.38142 | -43.94529 | 35100 ft | 496 kts | 26° |
| 2026-05-03 23:13 | 16.44193 | -43.91080 | 35098 ft | 495 kts | 26° |
| 2026-05-03 23:13 | 16.50245 | -43.87629 | 35101 ft | 495 kts | 26° |
| 2026-05-03 23:14 | 16.56295 | -43.84176 | 35106 ft | 495 kts | 26° |
| 2026-05-03 23:14 | 16.62345 | -43.80721 | 35107 ft | 495 kts | 26° |
| 2026-05-03 23:15 | 16.68393 | -43.77264 | 35102 ft | 495 kts | 26° |
| 2026-05-03 23:15 | 16.74398 | -43.73829 | 35103 ft | 494 kts | 26° |
| 2026-05-03 23:16 | 16.80428 | -43.70377 | 35106 ft | 494 kts | 26° |
| 2026-05-03 23:16 | 16.86451 | -43.66928 | 35106 ft | 494 kts | 26° |
| 2026-05-03 23:17 | 16.92478 | -43.63473 | 35116 ft | 493 kts | 27° |
| 2026-05-03 23:17 | 16.98468 | -43.60037 | 35109 ft | 493 kts | 27° |
| 2026-05-03 23:18 | 17.04484 | -43.56584 | 35105 ft | 493 kts | 27° |
| 2026-05-03 23:18 | 17.10501 | -43.53127 | 35110 ft | 493 kts | 27° |
| 2026-05-03 23:19 | 17.16518 | -43.49668 | 35112 ft | 493 kts | 27° |
| 2026-05-03 23:19 | 17.22547 | -43.46199 | 35115 ft | 494 kts | 27° |
| 2026-05-03 23:20 | 17.28565 | -43.42734 | 35111 ft | 494 kts | 27° |
| 2026-05-03 23:20 | 17.34593 | -43.39260 | 35111 ft | 494 kts | 27° |
| 2026-05-03 23:21 | 17.40612 | -43.35790 | 35115 ft | 494 kts | 27° |
| 2026-05-03 23:21 | 17.46634 | -43.32314 | 35112 ft | 494 kts | 27° |
| 2026-05-03 23:22 | 17.55496 | -43.26949 | 35116 ft | 485 kts | 29° |
| 2026-05-03 23:22 | 17.61307 | -43.23397 | 35111 ft | 485 kts | 25° |
| 2026-05-03 23:23 | 17.67398 | -43.20174 | 35126 ft | 494 kts | 25° |
| 2026-05-03 23:23 | 17.73511 | -43.16799 | 35117 ft | 497 kts | 26° |
| 2026-05-03 23:24 | 17.79532 | -43.13324 | 35115 ft | 496 kts | 27° |
| 2026-05-03 23:24 | 17.85520 | -43.09751 | 35111 ft | 493 kts | 27° |
| 2026-05-03 23:25 | 17.91506 | -43.06260 | 35114 ft | 491 kts | 26° |
| 2026-05-03 23:25 | 17.97505 | -43.02828 | 35121 ft | 490 kts | 26° |
| 2026-05-03 23:26 | 18.03452 | -42.99395 | 35118 ft | 490 kts | 26° |
| 2026-05-03 23:26 | 18.09420 | -42.95927 | 35118 ft | 489 kts | 26° |
| 2026-05-03 23:27 | 18.15386 | -42.92451 | 35121 ft | 490 kts | 26° |
| 2026-05-03 23:27 | 18.21348 | -42.88975 | 35121 ft | 490 kts | 26° |
| 2026-05-03 23:28 | 18.27320 | -42.85492 | 35124 ft | 490 kts | 26° |
| 2026-05-03 23:28 | 18.33250 | -42.82031 | 35123 ft | 490 kts | 26° |
| 2026-05-03 23:29 | 18.39224 | -42.78542 | 35120 ft | 491 kts | 26° |
| 2026-05-03 23:29 | 18.45199 | -42.75049 | 35121 ft | 491 kts | 26° |
| 2026-05-03 23:30 | 18.51188 | -42.71546 | 35123 ft | 492 kts | 26° |
| 2026-05-03 23:30 | 18.57139 | -42.68062 | 35123 ft | 492 kts | 26° |
| 2026-05-03 23:31 | 18.63128 | -42.64553 | 35122 ft | 493 kts | 26° |
| 2026-05-03 23:31 | 18.69122 | -42.61038 | 35129 ft | 493 kts | 26° |
| 2026-05-03 23:32 | 18.75116 | -42.57519 | 35122 ft | 493 kts | 26° |
| 2026-05-03 23:32 | 18.81107 | -42.54000 | 35122 ft | 493 kts | 26° |
| 2026-05-03 23:33 | 18.87101 | -42.50477 | 35123 ft | 492 kts | 26° |
| 2026-05-03 23:33 | 18.93088 | -42.46954 | 35122 ft | 492 kts | 26° |
| 2026-05-03 23:34 | 18.99072 | -42.43431 | 35124 ft | 492 kts | 26° |
| 2026-05-03 23:34 | 19.05054 | -42.39905 | 35132 ft | 492 kts | 26° |
| 2026-05-03 23:35 | 19.11038 | -42.36376 | 35123 ft | 493 kts | 26° |
| 2026-05-03 23:35 | 19.16986 | -42.32865 | 35123 ft | 493 kts | 26° |
| 2026-05-03 23:36 | 19.22978 | -42.29325 | 35123 ft | 493 kts | 26° |
| 2026-05-03 23:36 | 19.28969 | -42.25782 | 35123 ft | 493 kts | 26° |
| 2026-05-03 23:37 | 19.34959 | -42.22237 | 35122 ft | 494 kts | 26° |
| 2026-05-03 23:37 | 19.40963 | -42.18682 | 35132 ft | 494 kts | 26° |
| 2026-05-03 23:38 | 19.46964 | -42.15125 | 35122 ft | 494 kts | 26° |
| 2026-05-03 23:38 | 19.52932 | -42.11585 | 35122 ft | 494 kts | 26° |
| 2026-05-03 23:39 | 19.58932 | -42.08021 | 35122 ft | 494 kts | 26° |
| 2026-05-03 23:39 | 19.64925 | -42.04459 | 35125 ft | 494 kts | 26° |
| 2026-05-03 23:40 | 19.70936 | -42.00883 | 35123 ft | 495 kts | 26° |
| 2026-05-03 23:40 | 19.76946 | -41.97306 | 35124 ft | 495 kts | 26° |
| 2026-05-03 23:41 | 19.82960 | -41.93722 | 35130 ft | 496 kts | 26° |
| 2026-05-03 23:41 | 19.88938 | -41.90156 | 35127 ft | 496 kts | 26° |
| 2026-05-03 23:42 | 19.94961 | -41.86560 | 35129 ft | 497 kts | 25° |
| 2026-05-03 23:42 | 20.00997 | -41.82954 | 35122 ft | 497 kts | 25° |
| 2026-05-03 23:43 | 20.07035 | -41.79344 | 35129 ft | 497 kts | 25° |
| 2026-05-03 23:43 | 20.13066 | -41.75734 | 35129 ft | 498 kts | 25° |
| 2026-05-03 23:44 | 20.19065 | -41.72140 | 35129 ft | 498 kts | 25° |
| 2026-05-03 23:44 | 20.25112 | -41.68514 | 35132 ft | 498 kts | 25° |
| 2026-05-03 23:45 | 20.31152 | -41.64889 | 35127 ft | 498 kts | 25° |
| 2026-05-03 23:45 | 20.37198 | -41.61257 | 35125 ft | 498 kts | 25° |
| 2026-05-03 23:46 | 20.43236 | -41.57627 | 35126 ft | 498 kts | 25° |
| 2026-05-03 23:46 | 20.49283 | -41.53988 | 35138 ft | 498 kts | 25° |
| 2026-05-03 23:47 | 20.55293 | -41.50368 | 35138 ft | 499 kts | 25° |
| 2026-05-03 23:47 | 20.61341 | -41.46722 | 35129 ft | 499 kts | 25° |
| 2026-05-03 23:48 | 20.67382 | -41.43077 | 35128 ft | 499 kts | 25° |
| 2026-05-03 23:48 | 20.73433 | -41.39422 | 35127 ft | 499 kts | 25° |
| 2026-05-03 23:49 | 20.79444 | -41.35788 | 35129 ft | 498 kts | 25° |
| 2026-05-03 23:49 | 20.85483 | -41.32134 | 35126 ft | 499 kts | 24° |
| 2026-05-03 23:50 | 20.90500 | -41.29095 | 35124 ft | 499 kts | 24° |
| 2026-05-03 23:50 | 20.97524 | -41.24837 | 35129 ft | 499 kts | 24° |
| 2026-05-03 23:51 | 21.03566 | -41.21171 | 35131 ft | 499 kts | 24° |
| 2026-05-03 23:51 | 21.09604 | -41.17504 | 35127 ft | 499 kts | 24° |
| 2026-05-03 23:52 | 21.15656 | -41.13824 | 35139 ft | 499 kts | 24° |
| 2026-05-03 23:52 | 21.21703 | -41.10145 | 35128 ft | 500 kts | 24° |
| 2026-05-03 23:53 | 21.27757 | -41.06457 | 35129 ft | 500 kts | 24° |
| 2026-05-03 23:53 | 21.33772 | -41.02790 | 35132 ft | 501 kts | 24° |
| 2026-05-03 23:54 | 21.39842 | -40.99085 | 35130 ft | 501 kts | 24° |
| 2026-05-03 23:54 | 21.45898 | -40.95385 | 35141 ft | 501 kts | 24° |
| 2026-05-03 23:55 | 21.51965 | -40.91676 | 35137 ft | 501 kts | 24° |
| 2026-05-03 23:55 | 21.57980 | -40.87995 | 35131 ft | 501 kts | 24° |
| 2026-05-03 23:56 | 21.64035 | -40.84285 | 35129 ft | 500 kts | 24° |
| 2026-05-03 23:56 | 21.70079 | -40.80579 | 35130 ft | 500 kts | 24° |
| 2026-05-03 23:57 | 21.76121 | -40.76870 | 35128 ft | 499 kts | 24° |
| 2026-05-03 23:57 | 21.81136 | -40.73789 | 35127 ft | 499 kts | 24° |
| 2026-05-03 23:58 | 21.87176 | -40.70074 | 35131 ft | 499 kts | 24° |
| 2026-05-03 23:58 | 21.93210 | -40.66361 | 35134 ft | 499 kts | 24° |
| 2026-05-03 23:59 | 21.99244 | -40.62643 | 35131 ft | 499 kts | 24° |
| 2026-05-03 23:59 | 22.05250 | -40.58939 | 35144 ft | 499 kts | 24° |
| 2026-05-04 00:00 | 22.11289 | -40.55211 | 35136 ft | 499 kts | 24° |
| 2026-05-04 00:00 | 22.17316 | -40.51486 | 35134 ft | 499 kts | 24° |
| 2026-05-04 00:01 | 22.23335 | -40.47762 | 35130 ft | 498 kts | 24° |
| 2026-05-04 00:01 | 22.29349 | -40.44038 | 35135 ft | 498 kts | 24° |
| 2026-05-04 00:02 | 22.35362 | -40.40311 | 35146 ft | 498 kts | 24° |
| 2026-05-04 00:02 | 22.41330 | -40.36608 | 35129 ft | 497 kts | 24° |
| 2026-05-04 00:03 | 22.47326 | -40.32881 | 35128 ft | 496 kts | 25° |
| 2026-05-04 00:03 | 22.53295 | -40.29169 | 35133 ft | 494 kts | 25° |
| 2026-05-04 00:04 | 22.59260 | -40.25458 | 35132 ft | 493 kts | 25° |
| 2026-05-04 00:04 | 22.65175 | -40.21773 | 35123 ft | 493 kts | 25° |
| 2026-05-04 00:05 | 22.71115 | -40.18069 | 35134 ft | 492 kts | 25° |
| 2026-05-04 00:05 | 22.77038 | -40.14371 | 35129 ft | 491 kts | 25° |
| 2026-05-04 00:06 | 22.82971 | -40.10664 | 35131 ft | 491 kts | 25° |
| 2026-05-04 00:06 | 22.88887 | -40.06963 | 35130 ft | 491 kts | 25° |
| 2026-05-04 00:07 | 22.94803 | -40.03259 | 35132 ft | 491 kts | 25° |
| 2026-05-04 00:07 | 23.00658 | -39.99437 | 35137 ft | 494 kts | 30° |
| 2026-05-04 00:08 | 23.06059 | -39.94774 | 35136 ft | 496 kts | 35° |
| 2026-05-04 00:08 | 23.11331 | -39.90014 | 35128 ft | 495 kts | 35° |
| 2026-05-04 00:09 | 23.16644 | -39.85244 | 35133 ft | 494 kts | 35° |
| 2026-05-04 00:09 | 23.21965 | -39.80501 | 35141 ft | 494 kts | 35° |
| 2026-05-04 00:10 | 23.27286 | -39.75768 | 35131 ft | 494 kts | 35° |
| 2026-05-04 00:10 | 23.32600 | -39.71036 | 35139 ft | 493 kts | 35° |
| 2026-05-04 00:11 | 23.37903 | -39.66308 | 35127 ft | 493 kts | 35° |
| 2026-05-04 00:11 | 23.43168 | -39.61606 | 35126 ft | 493 kts | 35° |
| 2026-05-04 00:12 | 23.48468 | -39.56869 | 35127 ft | 493 kts | 35° |
| 2026-05-04 00:12 | 23.53780 | -39.52119 | 35127 ft | 494 kts | 35° |
| 2026-05-04 00:13 | 23.59102 | -39.47355 | 35130 ft | 495 kts | 35° |
| 2026-05-04 00:13 | 23.64439 | -39.42569 | 35147 ft | 496 kts | 35° |
| 2026-05-04 00:14 | 23.69771 | -39.37781 | 35132 ft | 496 kts | 35° |
| 2026-05-04 00:14 | 23.75097 | -39.32993 | 35131 ft | 495 kts | 34° |
| 2026-05-04 00:15 | 23.80382 | -39.28238 | 35124 ft | 495 kts | 34° |
| 2026-05-04 00:15 | 23.85691 | -39.23456 | 35125 ft | 494 kts | 34° |
| 2026-05-04 00:16 | 23.91001 | -39.18667 | 35125 ft | 494 kts | 34° |
| 2026-05-04 00:16 | 23.96308 | -39.13874 | 35125 ft | 494 kts | 34° |
| 2026-05-04 00:17 | 24.01534 | -39.08998 | 35081 ft | 492 kts | 37° |
| 2026-05-04 00:17 | 24.06661 | -39.04063 | 35128 ft | 489 kts | 34° |
| 2026-05-04 00:18 | 24.12120 | -38.99636 | 35143 ft | 496 kts | 31° |
| 2026-05-04 00:18 | 24.17571 | -38.94888 | 35125 ft | 502 kts | 34° |
| 2026-05-04 00:19 | 24.22894 | -38.89924 | 35120 ft | 502 kts | 35° |
| 2026-05-04 00:19 | 24.28211 | -38.84984 | 35118 ft | 500 kts | 34° |
| 2026-05-04 00:20 | 24.33554 | -38.80089 | 35138 ft | 499 kts | 34° |
| 2026-05-04 00:20 | 24.38858 | -38.75262 | 35122 ft | 498 kts | 34° |
| 2026-05-04 00:21 | 24.44192 | -38.70405 | 35118 ft | 496 kts | 34° |
| 2026-05-04 00:21 | 24.49496 | -38.65567 | 35130 ft | 495 kts | 33° |
| 2026-05-04 00:22 | 24.54794 | -38.60725 | 35116 ft | 495 kts | 33° |
| 2026-05-04 00:22 | 24.60087 | -38.55883 | 35117 ft | 494 kts | 33° |
| 2026-05-04 00:23 | 24.65366 | -38.51048 | 35118 ft | 494 kts | 33° |
| 2026-05-04 00:23 | 24.70645 | -38.46207 | 35106 ft | 493 kts | 33° |
| 2026-05-04 00:24 | 24.75911 | -38.41371 | 35122 ft | 492 kts | 33° |
| 2026-05-04 00:24 | 24.81159 | -38.36548 | 35108 ft | 491 kts | 33° |
| 2026-05-04 00:25 | 24.86372 | -38.31753 | 35112 ft | 491 kts | 33° |
| 2026-05-04 00:25 | 24.91609 | -38.26930 | 35111 ft | 490 kts | 33° |
| 2026-05-04 00:26 | 24.96837 | -38.22109 | 35112 ft | 490 kts | 33° |
| 2026-05-04 00:26 | 25.02074 | -38.17274 | 35125 ft | 490 kts | 33° |
| 2026-05-04 00:27 | 25.07283 | -38.12460 | 35115 ft | 491 kts | 33° |
| 2026-05-04 00:27 | 25.12517 | -38.07616 | 35111 ft | 491 kts | 33° |
| 2026-05-04 00:28 | 25.17747 | -38.02770 | 35109 ft | 491 kts | 33° |
| 2026-05-04 00:28 | 25.22983 | -37.97912 | 35110 ft | 491 kts | 33° |
| 2026-05-04 00:29 | 25.28226 | -37.93043 | 35123 ft | 491 kts | 33° |
| 2026-05-04 00:29 | 25.33425 | -37.88210 | 35119 ft | 491 kts | 33° |
| 2026-05-04 00:30 | 25.38649 | -37.83347 | 35112 ft | 490 kts | 33° |
| 2026-05-04 00:30 | 25.43850 | -37.78499 | 35103 ft | 488 kts | 33° |
| 2026-05-04 00:31 | 25.49039 | -37.73656 | 35099 ft | 486 kts | 33° |
| 2026-05-04 00:31 | 25.54215 | -37.68822 | 35112 ft | 485 kts | 33° |
| 2026-05-04 00:32 | 25.59367 | -37.64004 | 35091 ft | 484 kts | 33° |
| 2026-05-04 00:32 | 25.64504 | -37.59195 | 35108 ft | 483 kts | 33° |
| 2026-05-04 00:33 | 25.72169 | -37.52009 | 35098 ft | 483 kts | 33° |
| 2026-05-04 00:34 | 25.77293 | -37.47197 | 35127 ft | 481 kts | 33° |
| 2026-05-04 00:34 | 25.82404 | -37.42391 | 35107 ft | 481 kts | 33° |
| 2026-05-04 00:35 | 25.87503 | -37.37592 | 35098 ft | 480 kts | 33° |
| 2026-05-04 00:35 | 25.92590 | -37.32798 | 35098 ft | 479 kts | 33° |
| 2026-05-04 00:36 | 25.97676 | -37.28001 | 35097 ft | 479 kts | 33° |
| 2026-05-04 00:36 | 26.02755 | -37.23204 | 35124 ft | 479 kts | 33° |
| 2026-05-04 00:37 | 26.07801 | -37.18433 | 35104 ft | 479 kts | 33° |
| 2026-05-04 00:37 | 26.12871 | -37.13632 | 35089 ft | 478 kts | 33° |
| 2026-05-04 00:38 | 26.17927 | -37.08839 | 35092 ft | 477 kts | 33° |
| 2026-05-04 00:38 | 26.22973 | -37.04050 | 35088 ft | 476 kts | 33° |
| 2026-05-04 00:39 | 26.28014 | -36.99261 | 35090 ft | 476 kts | 33° |
| 2026-05-04 00:39 | 26.33053 | -36.94468 | 35095 ft | 476 kts | 32° |
| 2026-05-04 00:40 | 26.38093 | -36.89668 | 35103 ft | 476 kts | 32° |
| 2026-05-04 00:40 | 26.43096 | -36.84898 | 35090 ft | 475 kts | 32° |
| 2026-05-04 00:41 | 26.48124 | -36.80098 | 35091 ft | 475 kts | 32° |
| 2026-05-04 00:41 | 26.53142 | -36.75301 | 35093 ft | 474 kts | 32° |
| 2026-05-04 00:42 | 26.57315 | -36.71308 | 35084 ft | 475 kts | 32° |
| 2026-05-04 00:42 | 26.63143 | -36.65726 | 35086 ft | 474 kts | 32° |
| 2026-05-04 00:43 | 26.68157 | -36.60917 | 35082 ft | 475 kts | 32° |
| 2026-05-04 00:43 | 26.73167 | -36.56105 | 35097 ft | 475 kts | 32° |
| 2026-05-04 00:44 | 26.77329 | -36.52104 | 35079 ft | 474 kts | 32° |
| 2026-05-04 00:44 | 26.83146 | -36.46504 | 35078 ft | 473 kts | 32° |
| 2026-05-04 00:45 | 26.87328 | -36.42474 | 35077 ft | 473 kts | 32° |
| 2026-05-04 00:45 | 26.92284 | -36.37691 | 35076 ft | 472 kts | 32° |
| 2026-05-04 00:46 | 26.97258 | -36.32887 | 35077 ft | 472 kts | 32° |
| 2026-05-04 00:46 | 27.02236 | -36.28074 | 35074 ft | 472 kts | 32° |
| 2026-05-04 00:47 | 27.07218 | -36.23250 | 35104 ft | 473 kts | 32° |
| 2026-05-04 00:47 | 27.12193 | -36.18426 | 35080 ft | 472 kts | 32° |
| 2026-05-04 00:48 | 27.17162 | -36.13601 | 35068 ft | 471 kts | 32° |
| 2026-05-04 00:48 | 27.22080 | -36.08821 | 35067 ft | 470 kts | 32° |
| 2026-05-04 00:49 | 27.27028 | -36.04006 | 35069 ft | 469 kts | 32° |
| 2026-05-04 00:49 | 27.31963 | -35.99200 | 35075 ft | 469 kts | 32° |
| 2026-05-04 00:50 | 27.36909 | -35.94376 | 35069 ft | 470 kts | 32° |
| 2026-05-04 00:50 | 27.41824 | -35.89576 | 35085 ft | 471 kts | 32° |
| 2026-05-04 00:51 | 27.46773 | -35.84737 | 35066 ft | 471 kts | 32° |
| 2026-05-04 00:51 | 27.51716 | -35.79898 | 35058 ft | 471 kts | 32° |
| 2026-05-04 00:52 | 27.56653 | -35.75057 | 35098 ft | 470 kts | 33° |
| 2026-05-04 00:52 | 27.61604 | -35.70199 | 35068 ft | 471 kts | 33° |
| 2026-05-04 00:53 | 27.66554 | -35.65335 | 35055 ft | 472 kts | 33° |
| 2026-05-04 00:53 | 27.71511 | -35.60458 | 35055 ft | 473 kts | 33° |
| 2026-05-04 00:54 | 27.76466 | -35.55576 | 35065 ft | 473 kts | 33° |
| 2026-05-04 00:54 | 27.81394 | -35.50714 | 35050 ft | 472 kts | 33° |
| 2026-05-04 00:55 | 27.86352 | -35.45817 | 35062 ft | 473 kts | 33° |
| 2026-05-04 00:55 | 27.91301 | -35.40923 | 35039 ft | 472 kts | 33° |
| 2026-05-04 00:56 | 27.96250 | -35.36022 | 35052 ft | 472 kts | 33° |
| 2026-05-04 00:56 | 28.01188 | -35.31127 | 35054 ft | 472 kts | 33° |
| 2026-05-04 00:57 | 28.06102 | -35.26249 | 35050 ft | 472 kts | 33° |
| 2026-05-04 00:57 | 28.11037 | -35.21343 | 35070 ft | 473 kts | 32° |
| 2026-05-04 00:58 | 28.15981 | -35.16424 | 35053 ft | 472 kts | 32° |
| 2026-05-04 00:58 | 28.20913 | -35.11509 | 35041 ft | 471 kts | 32° |
| 2026-05-04 00:59 | 28.25828 | -35.06604 | 35035 ft | 470 kts | 32° |
| 2026-05-04 00:59 | 28.30735 | -35.01702 | 35036 ft | 469 kts | 32° |
| 2026-05-04 01:00 | 28.35602 | -34.96835 | 35056 ft | 470 kts | 32° |
| 2026-05-04 01:00 | 28.40515 | -34.91916 | 35034 ft | 470 kts | 32° |
| 2026-05-04 01:01 | 28.45425 | -34.86993 | 35033 ft | 471 kts | 33° |
| 2026-05-04 01:01 | 28.50346 | -34.82052 | 35044 ft | 472 kts | 33° |
| 2026-05-04 01:02 | 28.55270 | -34.77101 | 35046 ft | 472 kts | 33° |
| 2026-05-04 01:02 | 28.60209 | -34.72160 | 35036 ft | 467 kts | 28° |
| 2026-05-04 01:02 | 28.62761 | -34.69903 | 35031 ft | 469 kts | 39° |
| 2026-05-04 01:03 | 28.64014 | -34.66434 | 34395 ft | 510 kts | 77° |
| 2026-05-04 01:03 | 28.64647 | -34.62552 | 34719 ft | 489 kts | 62° |
| 2026-05-04 01:03 | 28.66216 | -34.59241 | 34837 ft | 467 kts | 41° |
| 2026-05-04 01:03 | 28.68581 | -34.56848 | 34925 ft | 448 kts | 23° |
| 2026-05-04 01:04 | 28.71320 | -34.55233 | 35017 ft | 442 kts | 16° |
| 2026-05-04 01:04 | 28.77090 | -34.52582 | 35048 ft | 453 kts | 17° |
| 2026-05-04 01:04 | 28.79950 | -34.50964 | 35033 ft | 465 kts | 22° |
| 2026-05-04 01:05 | 28.82718 | -34.48997 | 35039 ft | 472 kts | 27° |
| 2026-05-04 01:05 | 28.87889 | -34.44287 | 34981 ft | 477 kts | 37° |
| 2026-05-04 01:06 | 28.92817 | -34.39140 | 35037 ft | 485 kts | 36° |
| 2026-05-04 01:06 | 28.97882 | -34.33983 | 35028 ft | 487 kts | 36° |
| 2026-05-04 01:07 | 29.02908 | -34.28867 | 35024 ft | 486 kts | 36° |
| 2026-05-04 01:07 | 29.07955 | -34.23720 | 35021 ft | 485 kts | 36° |
| 2026-05-04 01:08 | 29.12943 | -34.18529 | 34998 ft | 483 kts | 39° |
| 2026-05-04 01:08 | 29.17827 | -34.13280 | 35029 ft | 484 kts | 38° |
| 2026-05-04 01:09 | 29.22977 | -34.08193 | 35028 ft | 491 kts | 37° |
| 2026-05-04 01:09 | 29.28127 | -34.03069 | 35017 ft | 490 kts | 38° |
| 2026-05-04 01:10 | 29.33220 | -33.97876 | 35014 ft | 489 kts | 38° |
| 2026-05-04 01:10 | 29.38253 | -33.92691 | 35017 ft | 489 kts | 38° |
| 2026-05-04 01:11 | 29.43298 | -33.87486 | 35013 ft | 488 kts | 38° |
| 2026-05-04 01:11 | 29.48282 | -33.82209 | 35001 ft | 484 kts | 41° |
| 2026-05-04 01:12 | 29.53235 | -33.76990 | 35013 ft | 484 kts | 38° |
| 2026-05-04 01:12 | 29.58330 | -33.71889 | 35019 ft | 487 kts | 38° |
| 2026-05-04 01:13 | 29.63418 | -33.66706 | 35019 ft | 490 kts | 40° |
| 2026-05-04 01:13 | 29.68463 | -33.61484 | 35018 ft | 492 kts | 40° |
| 2026-05-04 01:14 | 29.73550 | -33.56191 | 35010 ft | 493 kts | 40° |
| 2026-05-04 01:14 | 29.78630 | -33.50902 | 35008 ft | 492 kts | 40° |
| 2026-05-04 01:15 | 29.83703 | -33.45618 | 35009 ft | 491 kts | 40° |
| 2026-05-04 01:15 | 29.88751 | -33.40318 | 35006 ft | 488 kts | 44° |
| 2026-05-04 01:16 | 29.93706 | -33.34982 | 35009 ft | 487 kts | 40° |
| 2026-05-04 01:16 | 29.98788 | -33.29786 | 35016 ft | 489 kts | 40° |
| 2026-05-04 01:17 | 30.03877 | -33.24534 | 35015 ft | 491 kts | 40° |
| 2026-05-04 01:17 | 30.08950 | -33.19231 | 35010 ft | 492 kts | 41° |
| 2026-05-04 01:18 | 30.13986 | -33.13921 | 35008 ft | 493 kts | 42° |
| 2026-05-04 01:18 | 30.19012 | -33.08569 | 34984 ft | 489 kts | 43° |
| 2026-05-04 01:19 | 30.23951 | -33.03204 | 35008 ft | 487 kts | 41° |
| 2026-05-04 01:19 | 30.29029 | -32.97998 | 35009 ft | 489 kts | 40° |
| 2026-05-04 01:20 | 30.34100 | -32.92729 | 35009 ft | 491 kts | 41° |
| 2026-05-04 01:20 | 30.39122 | -32.87416 | 35013 ft | 491 kts | 42° |
| 2026-05-04 01:21 | 30.44215 | -32.82147 | 35013 ft | 490 kts | 41° |
| 2026-05-04 01:21 | 30.49223 | -32.76785 | 35010 ft | 491 kts | 42° |
| 2026-05-04 01:22 | 30.54236 | -32.71394 | 34992 ft | 490 kts | 42° |
| 2026-05-04 01:22 | 30.59252 | -32.66034 | 34994 ft | 490 kts | 41° |
| 2026-05-04 01:23 | 30.64276 | -32.60681 | 34998 ft | 489 kts | 42° |
| 2026-05-04 01:23 | 30.69290 | -32.55334 | 34993 ft | 489 kts | 42° |
| 2026-05-04 01:24 | 30.74293 | -32.49989 | 34995 ft | 488 kts | 42° |
| 2026-05-04 01:24 | 30.79292 | -32.44638 | 34999 ft | 488 kts | 42° |
| 2026-05-04 01:25 | 30.84266 | -32.39272 | 34997 ft | 487 kts | 43° |
| 2026-05-04 01:25 | 30.89131 | -32.33879 | 34986 ft | 482 kts | 44° |
| 2026-05-04 01:26 | 30.94083 | -32.28579 | 35003 ft | 484 kts | 41° |
| 2026-05-04 01:26 | 30.99110 | -32.23311 | 34999 ft | 488 kts | 41° |
| 2026-05-04 01:27 | 31.04125 | -32.17956 | 34999 ft | 490 kts | 42° |
| 2026-05-04 01:27 | 31.09136 | -32.12542 | 35002 ft | 491 kts | 42° |
| 2026-05-04 01:28 | 31.14143 | -32.07117 | 34994 ft | 491 kts | 43° |
| 2026-05-04 01:28 | 31.18975 | -32.01627 | 34997 ft | 483 kts | 45° |
| 2026-05-04 01:29 | 31.23949 | -31.96355 | 35003 ft | 485 kts | 40° |
| 2026-05-04 01:29 | 31.29048 | -31.91133 | 35008 ft | 489 kts | 43° |
| 2026-05-04 01:30 | 31.34027 | -31.85650 | 34999 ft | 492 kts | 43° |
| 2026-05-04 01:30 | 31.39007 | -31.80129 | 34999 ft | 493 kts | 43° |
| 2026-05-04 01:31 | 31.43168 | -31.75555 | 34996 ft | 494 kts | 43° |
| 2026-05-04 01:31 | 31.48191 | -31.70060 | 35004 ft | 494 kts | 43° |
| 2026-05-04 01:32 | 31.53212 | -31.64569 | 34999 ft | 493 kts | 43° |
| 2026-05-04 01:32 | 31.58221 | -31.59082 | 35000 ft | 492 kts | 43° |
| 2026-05-04 01:33 | 31.63215 | -31.53600 | 34999 ft | 491 kts | 43° |
| 2026-05-04 01:33 | 31.68178 | -31.48143 | 34990 ft | 491 kts | 43° |
| 2026-05-04 01:34 | 31.73166 | -31.42649 | 35001 ft | 492 kts | 43° |
| 2026-05-04 01:34 | 31.78160 | -31.37140 | 35003 ft | 493 kts | 43° |
| 2026-05-04 01:35 | 31.83170 | -31.31606 | 35007 ft | 494 kts | 44° |
| 2026-05-04 01:35 | 31.88188 | -31.26054 | 35001 ft | 495 kts | 44° |
| 2026-05-04 01:36 | 31.93202 | -31.20498 | 35005 ft | 495 kts | 44° |
| 2026-05-04 01:36 | 31.98187 | -31.14965 | 35005 ft | 495 kts | 44° |
| 2026-05-04 01:37 | 32.03193 | -31.09400 | 35002 ft | 495 kts | 44° |
| 2026-05-04 01:37 | 32.08201 | -31.03824 | 35005 ft | 494 kts | 44° |
| 2026-05-04 01:38 | 32.13200 | -30.98250 | 35003 ft | 494 kts | 44° |
| 2026-05-04 01:38 | 32.18197 | -30.92668 | 35003 ft | 494 kts | 44° |
| 2026-05-04 01:39 | 32.23192 | -30.87080 | 35009 ft | 494 kts | 44° |
| 2026-05-04 01:39 | 32.28156 | -30.81518 | 35008 ft | 494 kts | 44° |
| 2026-05-04 01:40 | 32.33148 | -30.75916 | 35014 ft | 495 kts | 44° |
| 2026-05-04 01:40 | 32.38144 | -30.70300 | 35009 ft | 495 kts | 44° |
| 2026-05-04 01:41 | 32.43141 | -30.64674 | 35003 ft | 495 kts | 44° |
| 2026-05-04 01:41 | 32.48129 | -30.59049 | 35010 ft | 495 kts | 44° |
| 2026-05-04 01:42 | 32.53111 | -30.53421 | 35010 ft | 495 kts | 44° |
| 2026-05-04 01:42 | 32.58062 | -30.47821 | 35014 ft | 495 kts | 44° |
| 2026-05-04 01:43 | 32.63048 | -30.42170 | 35022 ft | 495 kts | 44° |
| 2026-05-04 01:43 | 32.68023 | -30.36523 | 35010 ft | 495 kts | 44° |
| 2026-05-04 01:44 | 32.73005 | -30.30859 | 35022 ft | 496 kts | 44° |
| 2026-05-04 01:44 | 32.77996 | -30.25176 | 35022 ft | 497 kts | 44° |
| 2026-05-04 01:45 | 32.82989 | -30.19480 | 35024 ft | 498 kts | 44° |
| 2026-05-04 01:45 | 32.90466 | -30.10977 | 35029 ft | 497 kts | 46° |
| 2026-05-04 01:46 | 32.95384 | -30.05210 | 35025 ft | 496 kts | 43° |
| 2026-05-04 01:46 | 33.00397 | -29.99537 | 35035 ft | 499 kts | 43° |
| 2026-05-04 01:47 | 33.05308 | -29.93687 | 35034 ft | 499 kts | 47° |
| 2026-05-04 01:47 | 33.10004 | -29.87685 | 35055 ft | 498 kts | 45° |
| 2026-05-04 01:48 | 33.12423 | -29.84739 | 35289 ft | 496 kts | 46° |
| 2026-05-04 01:48 | 33.14794 | -29.81775 | 35628 ft | 491 kts | 48° |
| 2026-05-04 01:48 | 33.17106 | -29.78794 | 35875 ft | 487 kts | 47° |
| 2026-05-04 01:48 | 33.19445 | -29.75858 | 36073 ft | 489 kts | 46° |
| 2026-05-04 01:49 | 33.21783 | -29.72919 | 36351 ft | 486 kts | 47° |
| 2026-05-04 01:49 | 33.24074 | -29.69978 | 36674 ft | 481 kts | 46° |
| 2026-05-04 01:49 | 33.26385 | -29.67087 | 36891 ft | 480 kts | 45° |
| 2026-05-04 01:49 | 33.28746 | -29.64266 | 37004 ft | 481 kts | 44° |
| 2026-05-04 01:50 | 33.33485 | -29.58577 | 37050 ft | 484 kts | 46° |
| 2026-05-04 01:50 | 33.38079 | -29.52749 | 37064 ft | 482 kts | 47° |
| 2026-05-04 01:51 | 33.42616 | -29.46893 | 37076 ft | 484 kts | 46° |
| 2026-05-04 01:51 | 33.47342 | -29.41171 | 37057 ft | 481 kts | 45° |
| 2026-05-04 01:52 | 33.51944 | -29.35315 | 37062 ft | 483 kts | 48° |
| 2026-05-04 01:52 | 33.56441 | -29.29389 | 37086 ft | 477 kts | 47° |
| 2026-05-04 01:53 | 33.61095 | -29.23638 | 37061 ft | 480 kts | 47° |
| 2026-05-04 01:53 | 33.65598 | -29.17707 | 37071 ft | 481 kts | 47° |
| 2026-05-04 01:54 | 33.70185 | -29.11844 | 37087 ft | 484 kts | 45° |
| 2026-05-04 01:54 | 33.74901 | -29.06094 | 37087 ft | 482 kts | 44° |
| 2026-05-04 01:55 | 33.79436 | -29.00270 | 37091 ft | 478 kts | 48° |
| 2026-05-04 01:55 | 33.83979 | -28.94365 | 37084 ft | 483 kts | 46° |
| 2026-05-04 01:56 | 33.88615 | -28.88526 | 37080 ft | 483 kts | 44° |
| 2026-05-04 01:56 | 33.93283 | -28.82765 | 37094 ft | 479 kts | 48° |
| 2026-05-04 01:57 | 33.97772 | -28.76831 | 37084 ft | 480 kts | 47° |
| 2026-05-04 01:57 | 34.02279 | -28.70968 | 37108 ft | 478 kts | 44° |
| 2026-05-04 01:58 | 34.06967 | -28.65284 | 37106 ft | 483 kts | 44° |
| 2026-05-04 01:58 | 34.11591 | -28.59397 | 37120 ft | 484 kts | 47° |
| 2026-05-04 01:59 | 34.16245 | -28.53530 | 37109 ft | 481 kts | 46° |
| 2026-05-04 01:59 | 34.20782 | -28.47558 | 37115 ft | 484 kts | 47° |
| 2026-05-04 02:00 | 34.25330 | -28.41567 | 37110 ft | 483 kts | 46° |
| 2026-05-04 02:00 | 34.29832 | -28.35539 | 37133 ft | 481 kts | 49° |
| 2026-05-04 02:01 | 34.34304 | -28.29541 | 37110 ft | 480 kts | 46° |
| 2026-05-04 02:01 | 34.38893 | -28.23648 | 37128 ft | 483 kts | 45° |
| 2026-05-04 02:02 | 34.43543 | -28.17774 | 37133 ft | 482 kts | 45° |
| 2026-05-04 02:02 | 34.48136 | -28.11832 | 37135 ft | 479 kts | 47° |
| 2026-05-04 02:03 | 34.52750 | -28.05932 | 37131 ft | 484 kts | 46° |
| 2026-05-04 02:03 | 34.57334 | -27.99983 | 37137 ft | 481 kts | 46° |
| 2026-05-04 02:04 | 34.61894 | -27.93996 | 37162 ft | 484 kts | 46° |
| 2026-05-04 02:04 | 34.66447 | -27.87976 | 37151 ft | 482 kts | 47° |
| 2026-05-04 02:05 | 34.70875 | -27.81846 | 37133 ft | 483 kts | 47° |
| 2026-05-04 02:05 | 34.75404 | -27.75812 | 37132 ft | 481 kts | 46° |
| 2026-05-04 02:06 | 34.80025 | -27.69874 | 37146 ft | 484 kts | 45° |
| 2026-05-04 02:06 | 34.84602 | -27.63916 | 37151 ft | 484 kts | 46° |
| 2026-05-04 02:07 | 34.89019 | -27.57816 | 37154 ft | 481 kts | 49° |
| 2026-05-04 02:07 | 34.93548 | -27.51812 | 37152 ft | 485 kts | 44° |
| 2026-05-04 02:08 | 34.98262 | -27.45897 | 37161 ft | 487 kts | 46° |
| 2026-05-04 02:08 | 35.02784 | -27.39726 | 37164 ft | 485 kts | 46° |
| 2026-05-04 02:09 | 35.07260 | -27.33555 | 37172 ft | 487 kts | 45° |
| 2026-05-04 02:09 | 35.11890 | -27.27538 | 37164 ft | 485 kts | 46° |
| 2026-05-04 02:10 | 35.16413 | -27.21479 | 37177 ft | 485 kts | 46° |
| 2026-05-04 02:10 | 35.21004 | -27.15373 | 37180 ft | 486 kts | 46° |
| 2026-05-04 02:11 | 35.25486 | -27.09208 | 37185 ft | 484 kts | 45° |
| 2026-05-04 02:11 | 35.30037 | -27.03078 | 37197 ft | 488 kts | 46° |
| 2026-05-04 02:12 | 35.34593 | -26.96987 | 37178 ft | 486 kts | 46° |
| 2026-05-04 02:12 | 35.39164 | -26.90874 | 37184 ft | 485 kts | 46° |
| 2026-05-04 02:13 | 35.43673 | -26.84689 | 37178 ft | 485 kts | 47° |
| 2026-05-04 02:13 | 35.48285 | -26.78586 | 37182 ft | 488 kts | 46° |
| 2026-05-04 02:14 | 35.52808 | -26.72360 | 37178 ft | 489 kts | 46° |
| 2026-05-04 02:14 | 35.57370 | -26.66159 | 37204 ft | 488 kts | 46° |
| 2026-05-04 02:15 | 35.61902 | -26.59992 | 37199 ft | 490 kts | 46° |
| 2026-05-04 02:15 | 35.66458 | -26.53746 | 37200 ft | 491 kts | 46° |
| 2026-05-04 02:16 | 35.71046 | -26.47447 | 37209 ft | 497 kts | 46° |
| 2026-05-04 02:16 | 35.75684 | -26.41081 | 37204 ft | 500 kts | 46° |
| 2026-05-04 02:17 | 35.80334 | -26.34691 | 37199 ft | 501 kts | 46° |
| 2026-05-04 02:17 | 35.84984 | -26.28291 | 37203 ft | 501 kts | 46° |
| 2026-05-04 02:18 | 35.88843 | -26.22969 | 37201 ft | 500 kts | 46° |
| 2026-05-04 02:18 | 35.93473 | -26.16572 | 37212 ft | 499 kts | 46° |
| 2026-05-04 02:19 | 35.98090 | -26.10183 | 37203 ft | 498 kts | 46° |
| 2026-05-04 02:19 | 36.02697 | -26.03795 | 37208 ft | 497 kts | 46° |
| 2026-05-04 02:20 | 36.07289 | -25.97417 | 37210 ft | 496 kts | 46° |
| 2026-05-04 02:20 | 36.11873 | -25.91036 | 37214 ft | 496 kts | 46° |
| 2026-05-04 02:21 | 36.16430 | -25.84682 | 37220 ft | 497 kts | 46° |
| 2026-05-04 02:21 | 36.21014 | -25.78277 | 37218 ft | 497 kts | 46° |
| 2026-05-04 02:22 | 36.25605 | -25.71850 | 37231 ft | 498 kts | 46° |
| 2026-05-04 02:22 | 36.30200 | -25.65406 | 37223 ft | 499 kts | 46° |
| 2026-05-04 02:23 | 36.34797 | -25.58945 | 37219 ft | 500 kts | 46° |
| 2026-05-04 02:23 | 36.39398 | -25.52468 | 37227 ft | 500 kts | 46° |
| 2026-05-04 02:24 | 36.43975 | -25.46011 | 37226 ft | 501 kts | 46° |
| 2026-05-04 02:24 | 36.48584 | -25.39496 | 37232 ft | 501 kts | 46° |
| 2026-05-04 02:25 | 36.53177 | -25.32990 | 37231 ft | 501 kts | 46° |
| 2026-05-04 02:25 | 36.57778 | -25.26461 | 37236 ft | 501 kts | 46° |
| 2026-05-04 02:26 | 36.62365 | -25.19938 | 37231 ft | 500 kts | 46° |
| 2026-05-04 02:26 | 36.66942 | -25.13419 | 37232 ft | 500 kts | 46° |
| 2026-05-04 02:27 | 36.71486 | -25.06931 | 37235 ft | 499 kts | 46° |
| 2026-05-04 02:27 | 36.76048 | -25.00407 | 37239 ft | 499 kts | 46° |
| 2026-05-04 02:28 | 36.80609 | -24.93871 | 37245 ft | 499 kts | 46° |
| 2026-05-04 02:28 | 36.85161 | -24.87336 | 37239 ft | 499 kts | 46° |
| 2026-05-04 02:29 | 36.89710 | -24.80790 | 37237 ft | 499 kts | 46° |
| 2026-05-04 02:29 | 36.94232 | -24.74272 | 37232 ft | 498 kts | 46° |
| 2026-05-04 02:30 | 36.98766 | -24.67722 | 37242 ft | 498 kts | 46° |
| 2026-05-04 02:30 | 37.03295 | -24.61167 | 37243 ft | 497 kts | 46° |
| 2026-05-04 02:31 | 37.07817 | -24.54610 | 37245 ft | 497 kts | 46° |
| 2026-05-04 02:31 | 37.12330 | -24.48052 | 37247 ft | 497 kts | 46° |
| 2026-05-04 02:32 | 37.16840 | -24.41485 | 37247 ft | 497 kts | 46° |
| 2026-05-04 02:32 | 37.21346 | -24.34913 | 37270 ft | 496 kts | 47° |
| 2026-05-04 02:33 | 37.25845 | -24.28336 | 37253 ft | 495 kts | 47° |
| 2026-05-04 02:33 | 37.30324 | -24.21774 | 37248 ft | 494 kts | 47° |
| 2026-05-04 02:34 | 37.34765 | -24.15256 | 37249 ft | 493 kts | 47° |
| 2026-05-04 02:34 | 37.39214 | -24.08713 | 37243 ft | 492 kts | 47° |
| 2026-05-04 02:35 | 37.43658 | -24.02166 | 37255 ft | 491 kts | 47° |
| 2026-05-04 02:35 | 37.48092 | -23.95619 | 37253 ft | 491 kts | 47° |
| 2026-05-04 02:36 | 37.52519 | -23.89070 | 37254 ft | 491 kts | 47° |
| 2026-05-04 02:36 | 37.56942 | -23.82515 | 37258 ft | 490 kts | 48° |
| 2026-05-04 02:37 | 37.61353 | -23.75962 | 37251 ft | 490 kts | 48° |
| 2026-05-04 02:37 | 37.65758 | -23.69405 | 37257 ft | 489 kts | 48° |
| 2026-05-04 02:38 | 37.70125 | -23.62892 | 37256 ft | 488 kts | 49° |
| 2026-05-04 02:38 | 37.74510 | -23.56340 | 37254 ft | 488 kts | 49° |
| 2026-05-04 02:39 | 37.78893 | -23.49777 | 37260 ft | 488 kts | 48° |
| 2026-05-04 02:39 | 37.83277 | -23.43199 | 37255 ft | 489 kts | 48° |
| 2026-05-04 02:40 | 37.87502 | -23.36527 | 37252 ft | 481 kts | 51° |
| 2026-05-04 02:40 | 37.91726 | -23.30000 | 37257 ft | 480 kts | 49° |
| 2026-05-04 02:41 | 37.96116 | -23.23630 | 37267 ft | 486 kts | 47° |
| 2026-05-04 02:41 | 38.00542 | -23.17100 | 37259 ft | 489 kts | 49° |
| 2026-05-04 02:42 | 38.04807 | -23.10447 | 37255 ft | 482 kts | 49° |
| 2026-05-04 02:42 | 38.09244 | -23.04020 | 37274 ft | 484 kts | 48° |
| 2026-05-04 02:43 | 38.13637 | -22.97499 | 37267 ft | 485 kts | 49° |
| 2026-05-04 02:43 | 38.17922 | -22.90932 | 37263 ft | 484 kts | 51° |
| 2026-05-04 02:44 | 38.22118 | -22.84250 | 37262 ft | 482 kts | 49° |
| 2026-05-04 02:44 | 38.26388 | -22.77638 | 37227 ft | 481 kts | 50° |
| 2026-05-04 02:45 | 38.30669 | -22.71093 | 37262 ft | 482 kts | 46° |
| 2026-05-04 02:45 | 38.34985 | -22.64569 | 37264 ft | 480 kts | 50° |
| 2026-05-04 02:46 | 38.39168 | -22.57992 | 37266 ft | 480 kts | 50° |
| 2026-05-04 02:46 | 38.43376 | -22.51385 | 37265 ft | 479 kts | 50° |
| 2026-05-04 02:47 | 38.47713 | -22.44916 | 37267 ft | 480 kts | 49° |
| 2026-05-04 02:47 | 38.51966 | -22.38339 | 37266 ft | 478 kts | 47° |
| 2026-05-04 02:48 | 38.56355 | -22.31918 | 37271 ft | 481 kts | 49° |
| 2026-05-04 02:48 | 38.60561 | -22.25224 | 37271 ft | 484 kts | 50° |
| 2026-05-04 02:49 | 38.64736 | -22.18537 | 37263 ft | 484 kts | 49° |
| 2026-05-04 02:49 | 38.68980 | -22.11841 | 37257 ft | 483 kts | 49° |
| 2026-05-04 02:50 | 38.73229 | -22.05183 | 37251 ft | 481 kts | 49° |
| 2026-05-04 02:50 | 38.77458 | -21.98557 | 37251 ft | 480 kts | 49° |
| 2026-05-04 02:51 | 38.81672 | -21.91936 | 37260 ft | 478 kts | 49° |
| 2026-05-04 02:51 | 38.85840 | -21.85369 | 37257 ft | 477 kts | 49° |
| 2026-05-04 02:52 | 38.90024 | -21.78764 | 37262 ft | 477 kts | 49° |
| 2026-05-04 02:52 | 38.94202 | -21.72157 | 37255 ft | 476 kts | 49° |
| 2026-05-04 02:53 | 38.98379 | -21.65536 | 37247 ft | 476 kts | 49° |
| 2026-05-04 02:53 | 39.02551 | -21.58908 | 37246 ft | 476 kts | 49° |
| 2026-05-04 02:54 | 39.06719 | -21.52272 | 37264 ft | 477 kts | 49° |
| 2026-05-04 02:54 | 39.10859 | -21.45655 | 37285 ft | 477 kts | 50° |
| 2026-05-04 02:55 | 39.17092 | -21.35656 | 37255 ft | 476 kts | 49° |
| 2026-05-04 02:56 | 39.21260 | -21.29010 | 37255 ft | 476 kts | 49° |
| 2026-05-04 02:56 | 39.25409 | -21.22351 | 37251 ft | 476 kts | 49° |
| 2026-05-04 02:57 | 39.29545 | -21.15687 | 37254 ft | 475 kts | 49° |
| 2026-05-04 02:57 | 39.33650 | -21.09059 | 37258 ft | 475 kts | 49° |
| 2026-05-04 02:58 | 39.37776 | -21.02386 | 37251 ft | 475 kts | 49° |
| 2026-05-04 02:58 | 39.41896 | -20.95708 | 37256 ft | 474 kts | 49° |
| 2026-05-04 02:59 | 39.46013 | -20.89022 | 37254 ft | 474 kts | 49° |
| 2026-05-04 02:59 | 39.50129 | -20.82324 | 37249 ft | 474 kts | 49° |
| 2026-05-04 03:00 | 39.54231 | -20.75632 | 37257 ft | 474 kts | 49° |
| 2026-05-04 03:00 | 39.58301 | -20.68981 | 37250 ft | 474 kts | 49° |
| 2026-05-04 03:01 | 39.62392 | -20.62282 | 37254 ft | 474 kts | 49° |
| 2026-05-04 03:01 | 39.66480 | -20.55571 | 37248 ft | 474 kts | 49° |
| 2026-05-04 03:02 | 39.70567 | -20.48849 | 37250 ft | 474 kts | 49° |
| 2026-05-04 03:02 | 39.74644 | -20.42128 | 37251 ft | 474 kts | 49° |
| 2026-05-04 03:03 | 39.78725 | -20.35386 | 37247 ft | 474 kts | 49° |
| 2026-05-04 03:03 | 39.82800 | -20.28641 | 37248 ft | 474 kts | 49° |
| 2026-05-04 03:04 | 39.86848 | -20.21924 | 37248 ft | 474 kts | 49° |
| 2026-05-04 03:04 | 39.90910 | -20.15171 | 37244 ft | 474 kts | 49° |
| 2026-05-04 03:05 | 39.94281 | -20.09553 | 37254 ft | 474 kts | 49° |
| 2026-05-04 03:05 | 39.98338 | -20.02784 | 37241 ft | 474 kts | 49° |
| 2026-05-04 03:06 | 40.02086 | -19.95695 | 37259 ft | 476 kts | 55° |
| 2026-05-04 03:06 | 40.05464 | -19.88251 | 37243 ft | 477 kts | 56° |
| 2026-05-04 03:07 | 40.08826 | -19.80780 | 37240 ft | 477 kts | 56° |
| 2026-05-04 03:07 | 40.12211 | -19.73309 | 37247 ft | 478 kts | 56° |
| 2026-05-04 03:08 | 40.15608 | -19.65836 | 37233 ft | 478 kts | 56° |
| 2026-05-04 03:08 | 40.18978 | -19.58415 | 37238 ft | 478 kts | 56° |
| 2026-05-04 03:09 | 40.22367 | -19.50932 | 37236 ft | 478 kts | 56° |
| 2026-05-04 03:09 | 40.25750 | -19.43442 | 37253 ft | 478 kts | 56° |
| 2026-05-04 03:10 | 40.29130 | -19.35941 | 37236 ft | 478 kts | 56° |
| 2026-05-04 03:10 | 40.32509 | -19.28422 | 37233 ft | 478 kts | 56° |
| 2026-05-04 03:11 | 40.35875 | -19.20913 | 37231 ft | 478 kts | 56° |
| 2026-05-04 03:11 | 40.39241 | -19.13386 | 37228 ft | 478 kts | 56° |
| 2026-05-04 03:12 | 40.42601 | -19.05855 | 37227 ft | 478 kts | 55° |
| 2026-05-04 03:12 | 40.45938 | -18.98357 | 37226 ft | 479 kts | 55° |
| 2026-05-04 03:13 | 40.49294 | -18.90801 | 37222 ft | 478 kts | 56° |
| 2026-05-04 03:13 | 40.52643 | -18.83239 | 37223 ft | 478 kts | 56° |
| 2026-05-04 03:14 | 40.55989 | -18.75663 | 37226 ft | 479 kts | 56° |
| 2026-05-04 03:14 | 40.59334 | -18.68074 | 37221 ft | 479 kts | 56° |
| 2026-05-04 03:15 | 40.62670 | -18.60483 | 37220 ft | 479 kts | 56° |
| 2026-05-04 03:15 | 40.65983 | -18.52929 | 37221 ft | 479 kts | 56° |
| 2026-05-04 03:16 | 40.69311 | -18.45320 | 37223 ft | 479 kts | 56° |
| 2026-05-04 03:16 | 40.72640 | -18.37690 | 37224 ft | 480 kts | 56° |
| 2026-05-04 03:17 | 40.75973 | -18.30032 | 37222 ft | 481 kts | 56° |
| 2026-05-04 03:17 | 40.79297 | -18.22374 | 37217 ft | 481 kts | 56° |
| 2026-05-04 03:18 | 40.82599 | -18.14749 | 37211 ft | 481 kts | 56° |
| 2026-05-04 03:18 | 40.85917 | -18.07068 | 37226 ft | 481 kts | 56° |
| 2026-05-04 03:19 | 40.89235 | -17.99366 | 37216 ft | 482 kts | 56° |
| 2026-05-04 03:19 | 40.92553 | -17.91647 | 37212 ft | 482 kts | 56° |
| 2026-05-04 03:20 | 40.95844 | -17.83967 | 37208 ft | 483 kts | 56° |
| 2026-05-04 03:20 | 40.99150 | -17.76236 | 37207 ft | 483 kts | 56° |
| 2026-05-04 03:21 | 41.02454 | -17.68488 | 37214 ft | 484 kts | 56° |
| 2026-05-04 03:21 | 41.05766 | -17.60702 | 37195 ft | 485 kts | 56° |
| 2026-05-04 03:22 | 41.09071 | -17.52912 | 37192 ft | 485 kts | 56° |
| 2026-05-04 03:22 | 41.12370 | -17.45116 | 37206 ft | 485 kts | 56° |
| 2026-05-04 03:23 | 41.15663 | -17.37313 | 37224 ft | 485 kts | 56° |
| 2026-05-04 03:23 | 41.18956 | -17.29490 | 37203 ft | 485 kts | 56° |
| 2026-05-04 03:24 | 41.22245 | -17.21656 | 37197 ft | 486 kts | 56° |
| 2026-05-04 03:24 | 41.25511 | -17.13856 | 37196 ft | 486 kts | 56° |
| 2026-05-04 03:25 | 41.28793 | -17.05999 | 37195 ft | 486 kts | 56° |
| 2026-05-04 03:25 | 41.32076 | -16.98117 | 37204 ft | 487 kts | 56° |
| 2026-05-04 03:26 | 41.35355 | -16.90226 | 37190 ft | 487 kts | 56° |
| 2026-05-04 03:26 | 41.38608 | -16.82374 | 37199 ft | 487 kts | 56° |
| 2026-05-04 03:27 | 41.41878 | -16.74462 | 37187 ft | 487 kts | 56° |
| 2026-05-04 03:27 | 41.45138 | -16.66551 | 37200 ft | 487 kts | 56° |
| 2026-05-04 03:28 | 41.48398 | -16.58622 | 37186 ft | 487 kts | 56° |
| 2026-05-04 03:28 | 41.51648 | -16.50694 | 37187 ft | 487 kts | 57° |
| 2026-05-04 03:29 | 41.54892 | -16.42759 | 37186 ft | 487 kts | 57° |
| 2026-05-04 03:29 | 41.58133 | -16.34812 | 37194 ft | 487 kts | 57° |
| 2026-05-04 03:30 | 41.61349 | -16.26905 | 37187 ft | 488 kts | 57° |
| 2026-05-04 03:30 | 41.64588 | -16.18919 | 37180 ft | 488 kts | 57° |
| 2026-05-04 03:31 | 41.67819 | -16.10929 | 37182 ft | 489 kts | 57° |
| 2026-05-04 03:31 | 41.71050 | -16.02920 | 37177 ft | 489 kts | 57° |
| 2026-05-04 03:32 | 41.74278 | -15.94896 | 37189 ft | 490 kts | 57° |
| 2026-05-04 03:32 | 41.77508 | -15.86845 | 37178 ft | 490 kts | 57° |
| 2026-05-04 03:33 | 41.80712 | -15.78836 | 37174 ft | 490 kts | 57° |
| 2026-05-04 03:33 | 41.83931 | -15.70768 | 37174 ft | 490 kts | 57° |
| 2026-05-04 03:34 | 41.87144 | -15.62693 | 37193 ft | 491 kts | 57° |
| 2026-05-04 03:34 | 41.90357 | -15.54594 | 37172 ft | 491 kts | 57° |
| 2026-05-04 03:35 | 41.93564 | -15.46489 | 37162 ft | 491 kts | 57° |
| 2026-05-04 03:35 | 41.96765 | -15.38376 | 37167 ft | 491 kts | 57° |
| 2026-05-04 03:36 | 41.99934 | -15.30324 | 37167 ft | 491 kts | 57° |
| 2026-05-04 03:36 | 42.03122 | -15.22198 | 37161 ft | 491 kts | 57° |
| 2026-05-04 03:37 | 42.06302 | -15.14071 | 37157 ft | 491 kts | 57° |
| 2026-05-04 03:37 | 42.09473 | -15.05944 | 37157 ft | 490 kts | 57° |
| 2026-05-04 03:38 | 42.12641 | -14.97802 | 37158 ft | 490 kts | 57° |
| 2026-05-04 03:38 | 42.15804 | -14.89650 | 37167 ft | 491 kts | 57° |
| 2026-05-04 03:39 | 42.18961 | -14.81493 | 37161 ft | 491 kts | 58° |
| 2026-05-04 03:39 | 42.22111 | -14.73326 | 37153 ft | 491 kts | 58° |
| 2026-05-04 03:40 | 42.25235 | -14.65207 | 37151 ft | 491 kts | 58° |
| 2026-05-04 03:40 | 42.28371 | -14.57032 | 37176 ft | 490 kts | 58° |
| 2026-05-04 03:41 | 42.31510 | -14.48827 | 37160 ft | 491 kts | 58° |
| 2026-05-04 03:41 | 42.34649 | -14.40597 | 37150 ft | 491 kts | 58° |
| 2026-05-04 03:42 | 42.37776 | -14.32373 | 37147 ft | 491 kts | 58° |
| 2026-05-04 03:42 | 42.40875 | -14.24201 | 37148 ft | 491 kts | 58° |
| 2026-05-04 03:43 | 42.43988 | -14.15971 | 37135 ft | 491 kts | 58° |
| 2026-05-04 03:43 | 42.47096 | -14.07729 | 37140 ft | 491 kts | 58° |
| 2026-05-04 03:44 | 42.49705 | -13.99118 | 37133 ft | 498 kts | 69° |
| 2026-05-04 03:44 | 42.51110 | -13.89863 | 37132 ft | 503 kts | 78° |
| 2026-05-04 03:45 | 42.51967 | -13.80503 | 37136 ft | 504 kts | 80° |
| 2026-05-04 03:45 | 42.52817 | -13.71061 | 37129 ft | 504 kts | 79° |
| 2026-05-04 03:46 | 42.53701 | -13.61610 | 37126 ft | 505 kts | 79° |
| 2026-05-04 03:46 | 42.54595 | -13.52158 | 37124 ft | 505 kts | 79° |
| 2026-05-04 03:47 | 42.55485 | -13.42690 | 37124 ft | 505 kts | 80° |
| 2026-05-04 03:47 | 42.56367 | -13.33229 | 37117 ft | 505 kts | 80° |
| 2026-05-04 03:48 | 42.57233 | -13.23827 | 37116 ft | 505 kts | 80° |
| 2026-05-04 03:48 | 42.58097 | -13.14357 | 37120 ft | 505 kts | 80° |
| 2026-05-04 03:49 | 42.58954 | -13.04872 | 37115 ft | 506 kts | 80° |
| 2026-05-04 03:49 | 42.59799 | -12.95436 | 37110 ft | 506 kts | 81° |
| 2026-05-04 03:50 | 42.60641 | -12.85943 | 37109 ft | 506 kts | 81° |
| 2026-05-04 03:50 | 42.61475 | -12.76453 | 37120 ft | 506 kts | 81° |
| 2026-05-04 03:51 | 42.62303 | -12.66938 | 37107 ft | 507 kts | 81° |
| 2026-05-04 03:51 | 42.63123 | -12.57430 | 37102 ft | 507 kts | 81° |
| 2026-05-04 03:52 | 42.63934 | -12.47923 | 37104 ft | 507 kts | 81° |
| 2026-05-04 03:52 | 42.64737 | -12.38407 | 37120 ft | 507 kts | 81° |
| 2026-05-04 03:53 | 42.65529 | -12.28943 | 37099 ft | 508 kts | 81° |
| 2026-05-04 03:53 | 42.66318 | -12.19413 | 37094 ft | 508 kts | 81° |
| 2026-05-04 03:54 | 42.66969 | -12.11485 | 37093 ft | 508 kts | 81° |
| 2026-05-04 03:54 | 42.68054 | -12.02031 | 37092 ft | 505 kts | 73° |
| 2026-05-04 03:55 | 42.70299 | -11.93013 | 37089 ft | 502 kts | 63° |
| 2026-05-04 03:55 | 42.73344 | -11.84483 | 37084 ft | 501 kts | 61° |
| 2026-05-04 03:56 | 42.76449 | -11.75981 | 37086 ft | 502 kts | 61° |
| 2026-05-04 03:56 | 42.79506 | -11.67494 | 37081 ft | 502 kts | 61° |
| 2026-05-04 03:57 | 42.82551 | -11.58928 | 37084 ft | 503 kts | 62° |
| 2026-05-04 03:57 | 42.85584 | -11.50344 | 37088 ft | 503 kts | 62° |
| 2026-05-04 03:58 | 42.90132 | -11.37424 | 37080 ft | 503 kts | 62° |
| 2026-05-04 03:58 | 42.93155 | -11.28811 | 37086 ft | 503 kts | 62° |
| 2026-05-04 03:59 | 42.96152 | -11.20244 | 37079 ft | 503 kts | 62° |
| 2026-05-04 03:59 | 42.99166 | -11.11602 | 37072 ft | 503 kts | 62° |
| 2026-05-04 04:00 | 43.02171 | -11.02957 | 37074 ft | 503 kts | 62° |
| 2026-05-04 04:00 | 43.05169 | -10.94306 | 37074 ft | 503 kts | 62° |
| 2026-05-04 04:01 | 43.08151 | -10.85632 | 37077 ft | 503 kts | 63° |
| 2026-05-04 04:01 | 43.11141 | -10.76963 | 37075 ft | 504 kts | 62° |
| 2026-05-04 04:02 | 43.14137 | -10.68271 | 37073 ft | 505 kts | 63° |
| 2026-05-04 04:02 | 43.17102 | -10.59612 | 37070 ft | 505 kts | 63° |
| 2026-05-04 04:03 | 43.20048 | -10.50864 | 37056 ft | 504 kts | 65° |
| 2026-05-04 04:03 | 43.22940 | -10.42105 | 37063 ft | 504 kts | 63° |
| 2026-05-04 04:04 | 43.25964 | -10.33405 | 37056 ft | 506 kts | 63° |
| 2026-05-04 04:04 | 43.28963 | -10.24665 | 37062 ft | 507 kts | 63° |
| 2026-05-04 04:05 | 43.31845 | -10.15851 | 37057 ft | 504 kts | 66° |
| 2026-05-04 04:05 | 43.34670 | -10.07061 | 37043 ft | 502 kts | 64° |
| 2026-05-04 04:06 | 43.37690 | -9.98371 | 37064 ft | 505 kts | 63° |
| 2026-05-04 04:06 | 43.40715 | -9.89603 | 37062 ft | 509 kts | 63° |
| 2026-05-04 04:07 | 43.43663 | -9.80788 | 37057 ft | 511 kts | 64° |
| 2026-05-04 04:07 | 43.46609 | -9.71863 | 37052 ft | 512 kts | 64° |
| 2026-05-04 04:08 | 43.49551 | -9.62923 | 37047 ft | 511 kts | 64° |
| 2026-05-04 04:08 | 43.52483 | -9.54008 | 37039 ft | 510 kts | 64° |
| 2026-05-04 04:09 | 43.55383 | -9.45162 | 37043 ft | 509 kts | 65° |
| 2026-05-04 04:09 | 43.58260 | -9.36261 | 37045 ft | 507 kts | 65° |
| 2026-05-04 04:10 | 43.61073 | -9.27393 | 37046 ft | 505 kts | 64° |
| 2026-05-04 04:10 | 43.64013 | -9.18562 | 37044 ft | 507 kts | 64° |
| 2026-05-04 04:11 | 43.66937 | -9.09669 | 37053 ft | 509 kts | 65° |
| 2026-05-04 04:11 | 43.69801 | -9.00750 | 37037 ft | 511 kts | 65° |
| 2026-05-04 04:12 | 43.72703 | -8.91740 | 37034 ft | 512 kts | 65° |
| 2026-05-04 04:12 | 43.75598 | -8.82720 | 37027 ft | 513 kts | 65° |
| 2026-05-04 04:13 | 43.78483 | -8.73687 | 37026 ft | 513 kts | 65° |
| 2026-05-04 04:13 | 43.81355 | -8.64658 | 37026 ft | 512 kts | 66° |
| 2026-05-04 04:14 | 43.84200 | -8.55685 | 37026 ft | 512 kts | 66° |
| 2026-05-04 04:14 | 43.87054 | -8.46654 | 37026 ft | 511 kts | 66° |
| 2026-05-04 04:15 | 43.89903 | -8.37606 | 37027 ft | 511 kts | 66° |
| 2026-05-04 04:15 | 43.92742 | -8.28561 | 37034 ft | 511 kts | 66° |
| 2026-05-04 04:16 | 43.95568 | -8.19524 | 37024 ft | 511 kts | 66° |
| 2026-05-04 04:16 | 43.98389 | -8.10473 | 37025 ft | 511 kts | 66° |
| 2026-05-04 04:17 | 44.01186 | -8.01470 | 37022 ft | 511 kts | 66° |
| 2026-05-04 04:17 | 44.03994 | -7.92396 | 37022 ft | 511 kts | 66° |
| 2026-05-04 04:18 | 44.06794 | -7.83317 | 37021 ft | 511 kts | 66° |
| 2026-05-04 04:18 | 44.09589 | -7.74223 | 37022 ft | 511 kts | 66° |
| 2026-05-04 04:19 | 44.12377 | -7.65121 | 37022 ft | 511 kts | 66° |
| 2026-05-04 04:19 | 44.15141 | -7.56062 | 37002 ft | 511 kts | 67° |
| 2026-05-04 04:20 | 44.17913 | -7.46949 | 37023 ft | 511 kts | 67° |
| 2026-05-04 04:20 | 44.20684 | -7.37803 | 37022 ft | 511 kts | 67° |
| 2026-05-04 04:21 | 44.23441 | -7.28670 | 37010 ft | 511 kts | 67° |
| 2026-05-04 04:21 | 44.26194 | -7.19522 | 37005 ft | 511 kts | 67° |
| 2026-05-04 04:22 | 44.28918 | -7.10433 | 37010 ft | 511 kts | 68° |
| 2026-05-04 04:22 | 44.31653 | -7.01277 | 37008 ft | 511 kts | 68° |
| 2026-05-04 04:23 | 44.34382 | -6.92110 | 37008 ft | 511 kts | 68° |
| 2026-05-04 04:23 | 44.37104 | -6.82931 | 37000 ft | 511 kts | 68° |
| 2026-05-04 04:24 | 44.39816 | -6.73751 | 37005 ft | 511 kts | 68° |
| 2026-05-04 04:24 | 44.42524 | -6.64554 | 37018 ft | 511 kts | 68° |
| 2026-05-04 04:25 | 44.45222 | -6.55353 | 37010 ft | 511 kts | 68° |
| 2026-05-04 04:25 | 44.47915 | -6.46140 | 37000 ft | 511 kts | 68° |
| 2026-05-04 04:26 | 44.50584 | -6.36974 | 37002 ft | 511 kts | 68° |
| 2026-05-04 04:26 | 44.53263 | -6.27738 | 37002 ft | 512 kts | 68° |
| 2026-05-04 04:27 | 44.55935 | -6.18494 | 37001 ft | 511 kts | 68° |
| 2026-05-04 04:27 | 44.58599 | -6.09241 | 37000 ft | 511 kts | 68° |
| 2026-05-04 04:28 | 44.61254 | -5.99985 | 36993 ft | 511 kts | 69° |
| 2026-05-04 04:28 | 44.63915 | -5.90721 | 36993 ft | 512 kts | 67° |
| 2026-05-04 04:29 | 44.67392 | -5.82071 | 37000 ft | 512 kts | 54° |
| 2026-05-04 04:29 | 44.71963 | -5.74397 | 36994 ft | 512 kts | 46° |
| 2026-05-04 04:30 | 44.76899 | -5.67175 | 36991 ft | 512 kts | 45° |
| 2026-05-04 04:30 | 44.81843 | -5.59929 | 36995 ft | 513 kts | 46° |
| 2026-05-04 04:31 | 44.86755 | -5.52618 | 37004 ft | 514 kts | 46° |
| 2026-05-04 04:31 | 44.91652 | -5.45265 | 36995 ft | 514 kts | 46° |
| 2026-05-04 04:32 | 44.96545 | -5.37890 | 36993 ft | 514 kts | 46° |
| 2026-05-04 04:32 | 45.01427 | -5.30520 | 36987 ft | 513 kts | 46° |
| 2026-05-04 04:33 | 45.06272 | -5.23189 | 36993 ft | 513 kts | 47° |
| 2026-05-04 04:33 | 45.11148 | -5.15794 | 36998 ft | 513 kts | 47° |
| 2026-05-04 04:34 | 45.16012 | -5.08394 | 36988 ft | 513 kts | 47° |
| 2026-05-04 04:34 | 45.20872 | -5.00982 | 36983 ft | 513 kts | 47° |
| 2026-05-04 04:35 | 45.25700 | -4.93598 | 36986 ft | 513 kts | 47° |
| 2026-05-04 04:35 | 45.30558 | -4.86148 | 36991 ft | 513 kts | 47° |
| 2026-05-04 04:36 | 45.35408 | -4.78691 | 36981 ft | 513 kts | 47° |
| 2026-05-04 04:36 | 45.40248 | -4.71229 | 36982 ft | 513 kts | 47° |
| 2026-05-04 04:37 | 45.49895 | -4.56294 | 36987 ft | 513 kts | 47° |
| 2026-05-04 04:38 | 45.54720 | -4.48793 | 36986 ft | 513 kts | 47° |
| 2026-05-04 04:38 | 45.59546 | -4.41270 | 36977 ft | 514 kts | 48° |
| 2026-05-04 04:39 | 45.64367 | -4.33735 | 36975 ft | 513 kts | 48° |
| 2026-05-04 04:39 | 45.69183 | -4.26186 | 36978 ft | 513 kts | 48° |
| 2026-05-04 04:40 | 45.73995 | -4.18625 | 36976 ft | 513 kts | 48° |
| 2026-05-04 04:40 | 45.77990 | -4.12329 | 36973 ft | 513 kts | 48° |
| 2026-05-04 04:41 | 45.82784 | -4.04757 | 36976 ft | 513 kts | 48° |
| 2026-05-04 04:41 | 45.87578 | -3.97161 | 36973 ft | 513 kts | 48° |
| 2026-05-04 04:42 | 45.92361 | -3.89564 | 36983 ft | 512 kts | 48° |
| 2026-05-04 04:42 | 45.97132 | -3.81963 | 36977 ft | 512 kts | 48° |
| 2026-05-04 04:43 | 46.01905 | -3.74339 | 36972 ft | 512 kts | 49° |
| 2026-05-04 04:43 | 46.06506 | -3.66612 | 36972 ft | 511 kts | 52° |
| 2026-05-04 04:44 | 46.10920 | -3.58598 | 36973 ft | 511 kts | 52° |
| 2026-05-04 04:44 | 46.15311 | -3.50536 | 36964 ft | 511 kts | 52° |
| 2026-05-04 04:45 | 46.19724 | -3.42474 | 36973 ft | 512 kts | 52° |
| 2026-05-04 04:47 | 46.35195 | -3.14185 | 36970 ft | 513 kts | 52° |
| 2026-05-04 04:47 | 46.39613 | -3.06051 | 36967 ft | 513 kts | 53° |
| 2026-05-04 04:48 | 46.44024 | -2.97907 | 36969 ft | 513 kts | 53° |
| 2026-05-04 04:49 | 46.55019 | -2.77499 | 36965 ft | 513 kts | 53° |
| 2026-05-04 04:49 | 46.59380 | -2.69364 | 36972 ft | 513 kts | 53° |
| 2026-05-04 04:50 | 46.63757 | -2.61175 | 36967 ft | 513 kts | 53° |
| 2026-05-04 04:50 | 46.68132 | -2.52965 | 36959 ft | 513 kts | 53° |
| 2026-05-04 04:51 | 46.72503 | -2.44737 | 36959 ft | 513 kts | 53° |
| 2026-05-04 04:51 | 46.76870 | -2.36493 | 36969 ft | 513 kts | 53° |
| 2026-05-04 04:52 | 46.81233 | -2.28232 | 36966 ft | 514 kts | 53° |
| 2026-05-04 04:52 | 46.85566 | -2.20002 | 36968 ft | 514 kts | 53° |
| 2026-05-04 04:53 | 46.89923 | -2.11704 | 36961 ft | 514 kts | 53° |
| 2026-05-04 04:53 | 46.94275 | -2.03389 | 36946 ft | 515 kts | 53° |
| 2026-05-04 04:54 | 46.98625 | -1.95051 | 36965 ft | 515 kts | 54° |
| 2026-05-04 04:54 | 47.02972 | -1.86695 | 36963 ft | 515 kts | 54° |
| 2026-05-04 04:55 | 47.07309 | -1.78333 | 36960 ft | 515 kts | 54° |
| 2026-05-04 04:55 | 47.11640 | -1.69956 | 36967 ft | 515 kts | 54° |
| 2026-05-04 04:56 | 47.15944 | -1.61609 | 36950 ft | 515 kts | 54° |
| 2026-05-04 04:56 | 47.20214 | -1.53159 | 36968 ft | 515 kts | 55° |
| 2026-05-04 04:57 | 47.24438 | -1.44643 | 36967 ft | 515 kts | 55° |
| 2026-05-04 04:57 | 47.28659 | -1.36124 | 36962 ft | 515 kts | 55° |
| 2026-05-04 04:58 | 47.32888 | -1.27588 | 36959 ft | 515 kts | 55° |
| 2026-05-04 04:58 | 47.37100 | -1.19065 | 36946 ft | 514 kts | 55° |
| 2026-05-04 04:59 | 47.41302 | -1.10533 | 36959 ft | 514 kts | 55° |
| 2026-05-04 04:59 | 47.45497 | -1.01988 | 36953 ft | 513 kts | 55° |
| 2026-05-04 05:00 | 47.49678 | -0.93448 | 36951 ft | 513 kts | 56° |
| 2026-05-04 05:01 | 47.55065 | -0.79964 | 36938 ft | 508 kts | 70° |
| 2026-05-04 05:01 | 47.57425 | -0.70152 | 36961 ft | 506 kts | 73° |
| 2026-05-04 05:02 | 47.59779 | -0.60307 | 36968 ft | 507 kts | 72° |
| 2026-05-04 05:02 | 47.62172 | -0.50451 | 36960 ft | 508 kts | 73° |
| 2026-05-04 05:03 | 47.64549 | -0.40569 | 36971 ft | 508 kts | 73° |
| 2026-05-04 05:04 | 47.69292 | -0.20695 | 35775 ft | 519 kts | 73° |
| 2026-05-04 05:04 | 47.70507 | -0.15578 | 34925 ft | 520 kts | 73° |
| 2026-05-04 05:04 | 47.71694 | -0.10570 | 34063 ft | 521 kts | 74° |
| 2026-05-04 05:06 | 47.80065 | 0.24521 | 28147 ft | 495 kts | 66° |
| 2026-05-04 05:06 | 47.82005 | 0.28727 | 27657 ft | 494 kts | 49° |
| 2026-05-04 05:06 | 47.84620 | 0.31978 | 27327 ft | 489 kts | 34° |
| 2026-05-04 05:07 | 47.87516 | 0.34737 | 26974 ft | 497 kts | 34° |
| 2026-05-04 05:07 | 47.90402 | 0.37602 | 26577 ft | 500 kts | 36° |
| 2026-05-04 05:07 | 47.93249 | 0.40557 | 26186 ft | 496 kts | 37° |
| 2026-05-04 05:09 | 48.14989 | 0.63483 | 23214 ft | 469 kts | 38° |
| 2026-05-04 05:09 | 48.17652 | 0.66306 | 22817 ft | 466 kts | 37° |
| 2026-05-04 05:10 | 48.20291 | 0.69106 | 22445 ft | 463 kts | 37° |
| 2026-05-04 05:10 | 48.22912 | 0.71890 | 22088 ft | 460 kts | 37° |
| 2026-05-04 05:10 | 48.25519 | 0.74662 | 21728 ft | 458 kts | 37° |
| 2026-05-04 05:10 | 48.28106 | 0.77417 | 21373 ft | 455 kts | 37° |